<?xml version="1.0" encoding="UTF-8" standalone="no" ?>
<gpx xmlns="http://www.topografix.com/GPX/1/1" xmlns:xsi="http://www.w3.org/2001/XMLSchema-instance" xsi:schemaLocation="http://www.topografix.com/GPX/1/1 http://www.topografix.com/GPX/1/1/gpx.xsd" version="1.1" creator="VisuGPX - https://www.visugpx.com">
  <metadata>
    <name>ACTIVE LOG080602</name>
    <desc><![CDATA[

]]></desc>
  </metadata>
  <trk>
    <name><![CDATA[ACTIVE LOG080602]]></name>
    <trkseg>
      <trkpt lat="49.11471" lon="0.78835">
        <ele>147</ele>
        <time>2012-05-12T06:06:02Z</time>
      </trkpt>
      <trkpt lat="49.11476" lon="0.78852">
        <ele>148</ele>
        <time>2012-05-12T06:20:59Z</time>
      </trkpt>
      <trkpt lat="49.11459" lon="0.78834">
        <ele>147</ele>
        <time>2012-05-12T06:21:22Z</time>
      </trkpt>
      <trkpt lat="49.11474" lon="0.78851">
        <ele>148</ele>
        <time>2012-05-12T06:27:04Z</time>
      </trkpt>
      <trkpt lat="49.11492" lon="0.78883">
        <ele>148</ele>
        <time>2012-05-12T06:30:05Z</time>
      </trkpt>
      <trkpt lat="49.11533" lon="0.78845">
        <ele>148</ele>
        <time>2012-05-12T06:30:22Z</time>
      </trkpt>
      <trkpt lat="49.11571" lon="0.78805">
        <ele>147</ele>
        <time>2012-05-12T06:30:57Z</time>
      </trkpt>
      <trkpt lat="49.1161" lon="0.78758">
        <ele>146</ele>
        <time>2012-05-12T06:31:11Z</time>
      </trkpt>
      <trkpt lat="49.11648" lon="0.78718">
        <ele>146</ele>
        <time>2012-05-12T06:31:22Z</time>
      </trkpt>
      <trkpt lat="49.11685" lon="0.78678">
        <ele>145</ele>
        <time>2012-05-12T06:31:32Z</time>
      </trkpt>
      <trkpt lat="49.11725" lon="0.78637">
        <ele>145</ele>
        <time>2012-05-12T06:31:42Z</time>
      </trkpt>
      <trkpt lat="49.11729" lon="0.78583">
        <ele>145</ele>
        <time>2012-05-12T06:31:53Z</time>
      </trkpt>
      <trkpt lat="49.11702" lon="0.78527">
        <ele>146</ele>
        <time>2012-05-12T06:32:04Z</time>
      </trkpt>
      <trkpt lat="49.11674" lon="0.78467">
        <ele>146</ele>
        <time>2012-05-12T06:32:15Z</time>
      </trkpt>
      <trkpt lat="49.11645" lon="0.78406">
        <ele>147</ele>
        <time>2012-05-12T06:32:26Z</time>
      </trkpt>
      <trkpt lat="49.11618" lon="0.78348">
        <ele>147</ele>
        <time>2012-05-12T06:32:36Z</time>
      </trkpt>
      <trkpt lat="49.11595" lon="0.78289">
        <ele>147</ele>
        <time>2012-05-12T06:32:46Z</time>
      </trkpt>
      <trkpt lat="49.11573" lon="0.78227">
        <ele>148</ele>
        <time>2012-05-12T06:32:56Z</time>
      </trkpt>
      <trkpt lat="49.11551" lon="0.78164">
        <ele>150</ele>
        <time>2012-05-12T06:33:06Z</time>
      </trkpt>
      <trkpt lat="49.11533" lon="0.781">
        <ele>150</ele>
        <time>2012-05-12T06:33:16Z</time>
      </trkpt>
      <trkpt lat="49.11516" lon="0.78031">
        <ele>151</ele>
        <time>2012-05-12T06:33:27Z</time>
      </trkpt>
      <trkpt lat="49.115" lon="0.77961">
        <ele>152</ele>
        <time>2012-05-12T06:33:38Z</time>
      </trkpt>
      <trkpt lat="49.11487" lon="0.77895">
        <ele>151</ele>
        <time>2012-05-12T06:33:48Z</time>
      </trkpt>
      <trkpt lat="49.11477" lon="0.77827">
        <ele>152</ele>
        <time>2012-05-12T06:33:58Z</time>
      </trkpt>
      <trkpt lat="49.11472" lon="0.77758">
        <ele>152</ele>
        <time>2012-05-12T06:34:08Z</time>
      </trkpt>
      <trkpt lat="49.11469" lon="0.77688">
        <ele>152</ele>
        <time>2012-05-12T06:34:18Z</time>
      </trkpt>
      <trkpt lat="49.11471" lon="0.77613">
        <ele>152</ele>
        <time>2012-05-12T06:34:28Z</time>
      </trkpt>
      <trkpt lat="49.11478" lon="0.77536">
        <ele>152</ele>
        <time>2012-05-12T06:34:38Z</time>
      </trkpt>
      <trkpt lat="49.11482" lon="0.77464">
        <ele>152</ele>
        <time>2012-05-12T06:34:48Z</time>
      </trkpt>
      <trkpt lat="49.1148" lon="0.77392">
        <ele>152</ele>
        <time>2012-05-12T06:34:58Z</time>
      </trkpt>
      <trkpt lat="49.11477" lon="0.77317">
        <ele>151</ele>
        <time>2012-05-12T06:35:08Z</time>
      </trkpt>
      <trkpt lat="49.11475" lon="0.77247">
        <ele>151</ele>
        <time>2012-05-12T06:35:17Z</time>
      </trkpt>
      <trkpt lat="49.11468" lon="0.77177">
        <ele>150</ele>
        <time>2012-05-12T06:35:26Z</time>
      </trkpt>
      <trkpt lat="49.11452" lon="0.77113">
        <ele>149</ele>
        <time>2012-05-12T06:35:35Z</time>
      </trkpt>
      <trkpt lat="49.11434" lon="0.77049">
        <ele>148</ele>
        <time>2012-05-12T06:35:44Z</time>
      </trkpt>
      <trkpt lat="49.1142" lon="0.76984">
        <ele>147</ele>
        <time>2012-05-12T06:35:53Z</time>
      </trkpt>
      <trkpt lat="49.11407" lon="0.76917">
        <ele>147</ele>
        <time>2012-05-12T06:36:02Z</time>
      </trkpt>
      <trkpt lat="49.11394" lon="0.76848">
        <ele>147</ele>
        <time>2012-05-12T06:36:11Z</time>
      </trkpt>
      <trkpt lat="49.1138" lon="0.76779">
        <ele>147</ele>
        <time>2012-05-12T06:36:20Z</time>
      </trkpt>
      <trkpt lat="49.1136" lon="0.76713">
        <ele>148</ele>
        <time>2012-05-12T06:36:29Z</time>
      </trkpt>
      <trkpt lat="49.11336" lon="0.7665">
        <ele>148</ele>
        <time>2012-05-12T06:36:38Z</time>
      </trkpt>
      <trkpt lat="49.11319" lon="0.76583">
        <ele>147</ele>
        <time>2012-05-12T06:36:47Z</time>
      </trkpt>
      <trkpt lat="49.11312" lon="0.76509">
        <ele>147</ele>
        <time>2012-05-12T06:36:57Z</time>
      </trkpt>
      <trkpt lat="49.11314" lon="0.76449">
        <ele>147</ele>
        <time>2012-05-12T06:37:07Z</time>
      </trkpt>
      <trkpt lat="49.11363" lon="0.76442">
        <ele>147</ele>
        <time>2012-05-12T06:37:18Z</time>
      </trkpt>
      <trkpt lat="49.11384" lon="0.76387">
        <ele>147</ele>
        <time>2012-05-12T06:37:28Z</time>
      </trkpt>
      <trkpt lat="49.11371" lon="0.76321">
        <ele>148</ele>
        <time>2012-05-12T06:37:37Z</time>
      </trkpt>
      <trkpt lat="49.1135" lon="0.76257">
        <ele>147</ele>
        <time>2012-05-12T06:37:48Z</time>
      </trkpt>
      <trkpt lat="49.11334" lon="0.76191">
        <ele>146</ele>
        <time>2012-05-12T06:37:57Z</time>
      </trkpt>
      <trkpt lat="49.1132" lon="0.76119">
        <ele>145</ele>
        <time>2012-05-12T06:38:06Z</time>
      </trkpt>
      <trkpt lat="49.11319" lon="0.7606">
        <ele>144</ele>
        <time>2012-05-12T06:38:29Z</time>
      </trkpt>
      <trkpt lat="49.11366" lon="0.76048">
        <ele>146</ele>
        <time>2012-05-12T06:38:40Z</time>
      </trkpt>
      <trkpt lat="49.11414" lon="0.7603">
        <ele>146</ele>
        <time>2012-05-12T06:38:48Z</time>
      </trkpt>
      <trkpt lat="49.1146" lon="0.76019">
        <ele>149</ele>
        <time>2012-05-12T06:38:55Z</time>
      </trkpt>
      <trkpt lat="49.11509" lon="0.76033">
        <ele>149</ele>
        <time>2012-05-12T06:39:03Z</time>
      </trkpt>
      <trkpt lat="49.11551" lon="0.76007">
        <ele>148</ele>
        <time>2012-05-12T06:39:13Z</time>
      </trkpt>
      <trkpt lat="49.11587" lon="0.75963">
        <ele>147</ele>
        <time>2012-05-12T06:39:23Z</time>
      </trkpt>
      <trkpt lat="49.11582" lon="0.75964">
        <ele>147</ele>
        <time>2012-05-12T06:39:41Z</time>
      </trkpt>
      <trkpt lat="49.11546" lon="0.76015">
        <ele>148</ele>
        <time>2012-05-12T06:39:53Z</time>
      </trkpt>
      <trkpt lat="49.11505" lon="0.76032">
        <ele>149</ele>
        <time>2012-05-12T06:40:02Z</time>
      </trkpt>
      <trkpt lat="49.11454" lon="0.7602">
        <ele>149</ele>
        <time>2012-05-12T06:40:09Z</time>
      </trkpt>
      <trkpt lat="49.11409" lon="0.76033">
        <ele>146</ele>
        <time>2012-05-12T06:40:15Z</time>
      </trkpt>
      <trkpt lat="49.11364" lon="0.7605">
        <ele>146</ele>
        <time>2012-05-12T06:40:21Z</time>
      </trkpt>
      <trkpt lat="49.11315" lon="0.76057">
        <ele>145</ele>
        <time>2012-05-12T06:40:28Z</time>
      </trkpt>
      <trkpt lat="49.11293" lon="0.75992">
        <ele>145</ele>
        <time>2012-05-12T06:40:35Z</time>
      </trkpt>
      <trkpt lat="49.11274" lon="0.75929">
        <ele>145</ele>
        <time>2012-05-12T06:40:41Z</time>
      </trkpt>
      <trkpt lat="49.11239" lon="0.75888">
        <ele>146</ele>
        <time>2012-05-12T06:40:50Z</time>
      </trkpt>
      <trkpt lat="49.11271" lon="0.75924">
        <ele>145</ele>
        <time>2012-05-12T06:41:04Z</time>
      </trkpt>
      <trkpt lat="49.11296" lon="0.75994">
        <ele>145</ele>
        <time>2012-05-12T06:41:13Z</time>
      </trkpt>
      <trkpt lat="49.11313" lon="0.7606">
        <ele>145</ele>
        <time>2012-05-12T06:41:22Z</time>
      </trkpt>
      <trkpt lat="49.11324" lon="0.76133">
        <ele>145</ele>
        <time>2012-05-12T06:41:32Z</time>
      </trkpt>
      <trkpt lat="49.11337" lon="0.76201">
        <ele>146</ele>
        <time>2012-05-12T06:41:41Z</time>
      </trkpt>
      <trkpt lat="49.11354" lon="0.76271">
        <ele>147</ele>
        <time>2012-05-12T06:41:50Z</time>
      </trkpt>
      <trkpt lat="49.11376" lon="0.7634">
        <ele>147</ele>
        <time>2012-05-12T06:41:59Z</time>
      </trkpt>
      <trkpt lat="49.11393" lon="0.76403">
        <ele>147</ele>
        <time>2012-05-12T06:42:08Z</time>
      </trkpt>
      <trkpt lat="49.1144" lon="0.7639">
        <ele>146</ele>
        <time>2012-05-12T06:42:18Z</time>
      </trkpt>
      <trkpt lat="49.11473" lon="0.76372">
        <ele>146</ele>
        <time>2012-05-12T06:42:42Z</time>
      </trkpt>
      <trkpt lat="49.11475" lon="0.76301">
        <ele>147</ele>
        <time>2012-05-12T06:42:55Z</time>
      </trkpt>
      <trkpt lat="49.11477" lon="0.76234">
        <ele>148</ele>
        <time>2012-05-12T06:43:08Z</time>
      </trkpt>
      <trkpt lat="49.11485" lon="0.76165">
        <ele>149</ele>
        <time>2012-05-12T06:43:19Z</time>
      </trkpt>
      <trkpt lat="49.11509" lon="0.76104">
        <ele>150</ele>
        <time>2012-05-12T06:43:29Z</time>
      </trkpt>
      <trkpt lat="49.11525" lon="0.76043">
        <ele>149</ele>
        <time>2012-05-12T06:43:40Z</time>
      </trkpt>
      <trkpt lat="49.11556" lon="0.76">
        <ele>148</ele>
        <time>2012-05-12T06:44:11Z</time>
      </trkpt>
      <trkpt lat="49.11592" lon="0.75954">
        <ele>147</ele>
        <time>2012-05-12T06:44:21Z</time>
      </trkpt>
      <trkpt lat="49.11619" lon="0.75893">
        <ele>147</ele>
        <time>2012-05-12T06:44:30Z</time>
      </trkpt>
      <trkpt lat="49.11642" lon="0.75825">
        <ele>147</ele>
        <time>2012-05-12T06:44:39Z</time>
      </trkpt>
      <trkpt lat="49.11659" lon="0.7576">
        <ele>147</ele>
        <time>2012-05-12T06:44:47Z</time>
      </trkpt>
      <trkpt lat="49.11678" lon="0.7569">
        <ele>148</ele>
        <time>2012-05-12T06:44:56Z</time>
      </trkpt>
      <trkpt lat="49.11688" lon="0.7562">
        <ele>149</ele>
        <time>2012-05-12T06:45:04Z</time>
      </trkpt>
      <trkpt lat="49.11681" lon="0.75544">
        <ele>149</ele>
        <time>2012-05-12T06:45:12Z</time>
      </trkpt>
      <trkpt lat="49.11683" lon="0.75473">
        <ele>149</ele>
        <time>2012-05-12T06:45:20Z</time>
      </trkpt>
      <trkpt lat="49.11727" lon="0.75474">
        <ele>150</ele>
        <time>2012-05-12T06:45:30Z</time>
      </trkpt>
      <trkpt lat="49.11775" lon="0.75504">
        <ele>152</ele>
        <time>2012-05-12T06:45:41Z</time>
      </trkpt>
      <trkpt lat="49.11824" lon="0.75535">
        <ele>153</ele>
        <time>2012-05-12T06:45:52Z</time>
      </trkpt>
      <trkpt lat="49.11873" lon="0.75564">
        <ele>152</ele>
        <time>2012-05-12T06:46:03Z</time>
      </trkpt>
      <trkpt lat="49.11922" lon="0.75592">
        <ele>152</ele>
        <time>2012-05-12T06:46:14Z</time>
      </trkpt>
      <trkpt lat="49.11976" lon="0.75627">
        <ele>153</ele>
        <time>2012-05-12T06:46:29Z</time>
      </trkpt>
      <trkpt lat="49.1204" lon="0.75667">
        <ele>156</ele>
        <time>2012-05-12T06:46:40Z</time>
      </trkpt>
      <trkpt lat="49.1209" lon="0.75695">
        <ele>156</ele>
        <time>2012-05-12T06:46:49Z</time>
      </trkpt>
      <trkpt lat="49.12138" lon="0.75722">
        <ele>157</ele>
        <time>2012-05-12T06:46:58Z</time>
      </trkpt>
      <trkpt lat="49.12184" lon="0.7575">
        <ele>156</ele>
        <time>2012-05-12T06:47:07Z</time>
      </trkpt>
      <trkpt lat="49.12228" lon="0.75772">
        <ele>156</ele>
        <time>2012-05-12T06:47:18Z</time>
      </trkpt>
      <trkpt lat="49.12279" lon="0.75806">
        <ele>152</ele>
        <time>2012-05-12T06:47:30Z</time>
      </trkpt>
      <trkpt lat="49.12327" lon="0.75785">
        <ele>151</ele>
        <time>2012-05-12T06:47:58Z</time>
      </trkpt>
      <trkpt lat="49.12344" lon="0.75719">
        <ele>149</ele>
        <time>2012-05-12T06:48:07Z</time>
      </trkpt>
      <trkpt lat="49.1236" lon="0.75655">
        <ele>148</ele>
        <time>2012-05-12T06:48:15Z</time>
      </trkpt>
      <trkpt lat="49.1237" lon="0.75583">
        <ele>147</ele>
        <time>2012-05-12T06:48:24Z</time>
      </trkpt>
      <trkpt lat="49.12389" lon="0.75518">
        <ele>147</ele>
        <time>2012-05-12T06:48:32Z</time>
      </trkpt>
      <trkpt lat="49.12418" lon="0.75463">
        <ele>145</ele>
        <time>2012-05-12T06:48:41Z</time>
      </trkpt>
      <trkpt lat="49.12441" lon="0.75403">
        <ele>144</ele>
        <time>2012-05-12T06:48:50Z</time>
      </trkpt>
      <trkpt lat="49.12472" lon="0.75348">
        <ele>145</ele>
        <time>2012-05-12T06:48:59Z</time>
      </trkpt>
      <trkpt lat="49.12511" lon="0.75313">
        <ele>145</ele>
        <time>2012-05-12T06:49:08Z</time>
      </trkpt>
      <trkpt lat="49.12508" lon="0.75251">
        <ele>145</ele>
        <time>2012-05-12T06:49:18Z</time>
      </trkpt>
      <trkpt lat="49.12492" lon="0.75185">
        <ele>145</ele>
        <time>2012-05-12T06:49:27Z</time>
      </trkpt>
      <trkpt lat="49.12476" lon="0.75115">
        <ele>143</ele>
        <time>2012-05-12T06:49:36Z</time>
      </trkpt>
      <trkpt lat="49.12459" lon="0.75042">
        <ele>143</ele>
        <time>2012-05-12T06:49:45Z</time>
      </trkpt>
      <trkpt lat="49.12442" lon="0.74969">
        <ele>143</ele>
        <time>2012-05-12T06:49:53Z</time>
      </trkpt>
      <trkpt lat="49.12426" lon="0.74901">
        <ele>143</ele>
        <time>2012-05-12T06:50:01Z</time>
      </trkpt>
      <trkpt lat="49.12409" lon="0.74833">
        <ele>144</ele>
        <time>2012-05-12T06:50:10Z</time>
      </trkpt>
      <trkpt lat="49.12394" lon="0.7477">
        <ele>145</ele>
        <time>2012-05-12T06:50:19Z</time>
      </trkpt>
      <trkpt lat="49.12379" lon="0.74704">
        <ele>148</ele>
        <time>2012-05-12T06:50:30Z</time>
      </trkpt>
      <trkpt lat="49.12361" lon="0.74639">
        <ele>150</ele>
        <time>2012-05-12T06:50:40Z</time>
      </trkpt>
      <trkpt lat="49.12341" lon="0.74572">
        <ele>151</ele>
        <time>2012-05-12T06:50:49Z</time>
      </trkpt>
      <trkpt lat="49.12321" lon="0.74503">
        <ele>151</ele>
        <time>2012-05-12T06:50:57Z</time>
      </trkpt>
      <trkpt lat="49.12293" lon="0.74448">
        <ele>150</ele>
        <time>2012-05-12T06:51:09Z</time>
      </trkpt>
      <trkpt lat="49.12265" lon="0.7439">
        <ele>146</ele>
        <time>2012-05-12T06:51:19Z</time>
      </trkpt>
      <trkpt lat="49.12226" lon="0.74357">
        <ele>143</ele>
        <time>2012-05-12T06:51:38Z</time>
      </trkpt>
      <trkpt lat="49.12189" lon="0.74318">
        <ele>137</ele>
        <time>2012-05-12T06:51:50Z</time>
      </trkpt>
      <trkpt lat="49.12152" lon="0.74277">
        <ele>135</ele>
        <time>2012-05-12T06:52:04Z</time>
      </trkpt>
      <trkpt lat="49.12131" lon="0.74212">
        <ele>127</ele>
        <time>2012-05-12T06:52:21Z</time>
      </trkpt>
      <trkpt lat="49.12084" lon="0.74152">
        <ele>117</ele>
        <time>2012-05-12T06:52:40Z</time>
      </trkpt>
      <trkpt lat="49.12035" lon="0.7414">
        <ele>113</ele>
        <time>2012-05-12T06:52:52Z</time>
      </trkpt>
      <trkpt lat="49.11987" lon="0.74109">
        <ele>109</ele>
        <time>2012-05-12T06:53:03Z</time>
      </trkpt>
      <trkpt lat="49.11942" lon="0.74071">
        <ele>100</ele>
        <time>2012-05-12T06:53:14Z</time>
      </trkpt>
      <trkpt lat="49.11928" lon="0.73994">
        <ele>91</ele>
        <time>2012-05-12T06:53:26Z</time>
      </trkpt>
      <trkpt lat="49.11919" lon="0.7392">
        <ele>85</ele>
        <time>2012-05-12T06:53:35Z</time>
      </trkpt>
      <trkpt lat="49.11908" lon="0.73845">
        <ele>79</ele>
        <time>2012-05-12T06:53:43Z</time>
      </trkpt>
      <trkpt lat="49.11899" lon="0.73774">
        <ele>76</ele>
        <time>2012-05-12T06:53:52Z</time>
      </trkpt>
      <trkpt lat="49.11851" lon="0.73785">
        <ele>75</ele>
        <time>2012-05-12T06:54:04Z</time>
      </trkpt>
      <trkpt lat="49.11813" lon="0.73765">
        <ele>74</ele>
        <time>2012-05-12T06:54:15Z</time>
      </trkpt>
      <trkpt lat="49.11798" lon="0.73693">
        <ele>74</ele>
        <time>2012-05-12T06:54:24Z</time>
      </trkpt>
      <trkpt lat="49.11784" lon="0.73626">
        <ele>73</ele>
        <time>2012-05-12T06:54:32Z</time>
      </trkpt>
      <trkpt lat="49.11753" lon="0.73565">
        <ele>72</ele>
        <time>2012-05-12T06:54:40Z</time>
      </trkpt>
      <trkpt lat="49.11707" lon="0.73529">
        <ele>71</ele>
        <time>2012-05-12T06:54:48Z</time>
      </trkpt>
      <trkpt lat="49.11668" lon="0.73481">
        <ele>71</ele>
        <time>2012-05-12T06:54:56Z</time>
      </trkpt>
      <trkpt lat="49.11636" lon="0.73424">
        <ele>72</ele>
        <time>2012-05-12T06:55:04Z</time>
      </trkpt>
      <trkpt lat="49.11609" lon="0.73365">
        <ele>74</ele>
        <time>2012-05-12T06:55:12Z</time>
      </trkpt>
      <trkpt lat="49.11602" lon="0.73293">
        <ele>75</ele>
        <time>2012-05-12T06:55:20Z</time>
      </trkpt>
      <trkpt lat="49.11608" lon="0.73226">
        <ele>75</ele>
        <time>2012-05-12T06:55:27Z</time>
      </trkpt>
      <trkpt lat="49.11608" lon="0.73154">
        <ele>75</ele>
        <time>2012-05-12T06:55:35Z</time>
      </trkpt>
      <trkpt lat="49.11577" lon="0.73099">
        <ele>75</ele>
        <time>2012-05-12T06:55:43Z</time>
      </trkpt>
      <trkpt lat="49.11538" lon="0.73053">
        <ele>75</ele>
        <time>2012-05-12T06:55:51Z</time>
      </trkpt>
      <trkpt lat="49.11501" lon="0.73004">
        <ele>73</ele>
        <time>2012-05-12T06:55:59Z</time>
      </trkpt>
      <trkpt lat="49.11464" lon="0.72954">
        <ele>73</ele>
        <time>2012-05-12T06:56:07Z</time>
      </trkpt>
      <trkpt lat="49.11428" lon="0.72911">
        <ele>74</ele>
        <time>2012-05-12T06:56:15Z</time>
      </trkpt>
      <trkpt lat="49.11384" lon="0.72876">
        <ele>75</ele>
        <time>2012-05-12T06:56:23Z</time>
      </trkpt>
      <trkpt lat="49.11343" lon="0.72846">
        <ele>75</ele>
        <time>2012-05-12T06:56:30Z</time>
      </trkpt>
      <trkpt lat="49.11298" lon="0.72813">
        <ele>76</ele>
        <time>2012-05-12T06:56:38Z</time>
      </trkpt>
      <trkpt lat="49.11255" lon="0.72781">
        <ele>76</ele>
        <time>2012-05-12T06:56:46Z</time>
      </trkpt>
      <trkpt lat="49.11214" lon="0.7274">
        <ele>76</ele>
        <time>2012-05-12T06:56:54Z</time>
      </trkpt>
      <trkpt lat="49.1118" lon="0.72687">
        <ele>77</ele>
        <time>2012-05-12T06:57:02Z</time>
      </trkpt>
      <trkpt lat="49.11146" lon="0.72637">
        <ele>77</ele>
        <time>2012-05-12T06:57:10Z</time>
      </trkpt>
      <trkpt lat="49.11114" lon="0.72589">
        <ele>76</ele>
        <time>2012-05-12T06:57:18Z</time>
      </trkpt>
      <trkpt lat="49.1108" lon="0.72538">
        <ele>76</ele>
        <time>2012-05-12T06:57:27Z</time>
      </trkpt>
      <trkpt lat="49.11047" lon="0.72488">
        <ele>76</ele>
        <time>2012-05-12T06:57:36Z</time>
      </trkpt>
      <trkpt lat="49.11012" lon="0.72436">
        <ele>77</ele>
        <time>2012-05-12T06:57:45Z</time>
      </trkpt>
      <trkpt lat="49.10978" lon="0.72385">
        <ele>78</ele>
        <time>2012-05-12T06:57:54Z</time>
      </trkpt>
      <trkpt lat="49.10946" lon="0.72336">
        <ele>79</ele>
        <time>2012-05-12T06:58:03Z</time>
      </trkpt>
      <trkpt lat="49.10921" lon="0.72368">
        <ele>79</ele>
        <time>2012-05-12T06:58:15Z</time>
      </trkpt>
      <trkpt lat="49.10916" lon="0.72437">
        <ele>81</ele>
        <time>2012-05-12T06:58:27Z</time>
      </trkpt>
      <trkpt lat="49.10909" lon="0.7251">
        <ele>82</ele>
        <time>2012-05-12T06:58:38Z</time>
      </trkpt>
      <trkpt lat="49.10895" lon="0.72572">
        <ele>83</ele>
        <time>2012-05-12T06:58:49Z</time>
      </trkpt>
      <trkpt lat="49.10879" lon="0.72503">
        <ele>84</ele>
        <time>2012-05-12T06:59:02Z</time>
      </trkpt>
      <trkpt lat="49.10835" lon="0.72483">
        <ele>85</ele>
        <time>2012-05-12T06:59:16Z</time>
      </trkpt>
      <trkpt lat="49.1079" lon="0.72487">
        <ele>92</ele>
        <time>2012-05-12T06:59:31Z</time>
      </trkpt>
      <trkpt lat="49.10745" lon="0.72473">
        <ele>99</ele>
        <time>2012-05-12T06:59:44Z</time>
      </trkpt>
      <trkpt lat="49.107" lon="0.72457">
        <ele>98</ele>
        <time>2012-05-12T06:59:55Z</time>
      </trkpt>
      <trkpt lat="49.10653" lon="0.72442">
        <ele>100</ele>
        <time>2012-05-12T07:00:06Z</time>
      </trkpt>
      <trkpt lat="49.10604" lon="0.72429">
        <ele>100</ele>
        <time>2012-05-12T07:00:17Z</time>
      </trkpt>
      <trkpt lat="49.10558" lon="0.72435">
        <ele>102</ele>
        <time>2012-05-12T07:00:28Z</time>
      </trkpt>
      <trkpt lat="49.10512" lon="0.72451">
        <ele>104</ele>
        <time>2012-05-12T07:00:40Z</time>
      </trkpt>
      <trkpt lat="49.10466" lon="0.72454">
        <ele>105</ele>
        <time>2012-05-12T07:00:52Z</time>
      </trkpt>
      <trkpt lat="49.10417" lon="0.72455">
        <ele>105</ele>
        <time>2012-05-12T07:01:05Z</time>
      </trkpt>
      <trkpt lat="49.1037" lon="0.72476">
        <ele>107</ele>
        <time>2012-05-12T07:01:18Z</time>
      </trkpt>
      <trkpt lat="49.10329" lon="0.72516">
        <ele>115</ele>
        <time>2012-05-12T07:01:33Z</time>
      </trkpt>
      <trkpt lat="49.103" lon="0.72572">
        <ele>120</ele>
        <time>2012-05-12T07:01:52Z</time>
      </trkpt>
      <trkpt lat="49.10275" lon="0.72644">
        <ele>127</ele>
        <time>2012-05-12T07:02:15Z</time>
      </trkpt>
      <trkpt lat="49.10253" lon="0.72709">
        <ele>130</ele>
        <time>2012-05-12T07:02:39Z</time>
      </trkpt>
      <trkpt lat="49.10227" lon="0.72773">
        <ele>135</ele>
        <time>2012-05-12T07:03:24Z</time>
      </trkpt>
      <trkpt lat="49.10206" lon="0.72838">
        <ele>139</ele>
        <time>2012-05-12T07:03:44Z</time>
      </trkpt>
      <trkpt lat="49.10178" lon="0.72896">
        <ele>140</ele>
        <time>2012-05-12T07:04:02Z</time>
      </trkpt>
      <trkpt lat="49.10137" lon="0.72942">
        <ele>142</ele>
        <time>2012-05-12T07:04:20Z</time>
      </trkpt>
      <trkpt lat="49.10097" lon="0.72978">
        <ele>142</ele>
        <time>2012-05-12T07:04:37Z</time>
      </trkpt>
      <trkpt lat="49.10056" lon="0.7301">
        <ele>143</ele>
        <time>2012-05-12T07:04:54Z</time>
      </trkpt>
      <trkpt lat="49.10012" lon="0.73041">
        <ele>144</ele>
        <time>2012-05-12T07:05:11Z</time>
      </trkpt>
      <trkpt lat="49.09966" lon="0.73072">
        <ele>144</ele>
        <time>2012-05-12T07:05:27Z</time>
      </trkpt>
      <trkpt lat="49.09925" lon="0.73107">
        <ele>145</ele>
        <time>2012-05-12T07:05:42Z</time>
      </trkpt>
      <trkpt lat="49.09877" lon="0.73141">
        <ele>145</ele>
        <time>2012-05-12T07:05:57Z</time>
      </trkpt>
      <trkpt lat="49.09832" lon="0.73176">
        <ele>145</ele>
        <time>2012-05-12T07:06:10Z</time>
      </trkpt>
      <trkpt lat="49.09782" lon="0.73204">
        <ele>146</ele>
        <time>2012-05-12T07:06:24Z</time>
      </trkpt>
      <trkpt lat="49.09736" lon="0.7324">
        <ele>148</ele>
        <time>2012-05-12T07:06:39Z</time>
      </trkpt>
      <trkpt lat="49.09693" lon="0.73288">
        <ele>148</ele>
        <time>2012-05-12T07:07:43Z</time>
      </trkpt>
      <trkpt lat="49.0966" lon="0.73372">
        <ele>148</ele>
        <time>2012-05-12T07:07:58Z</time>
      </trkpt>
      <trkpt lat="49.09633" lon="0.73463">
        <ele>147</ele>
        <time>2012-05-12T07:08:15Z</time>
      </trkpt>
      <trkpt lat="49.09608" lon="0.73549">
        <ele>147</ele>
        <time>2012-05-12T07:08:32Z</time>
      </trkpt>
      <trkpt lat="49.09578" lon="0.73633">
        <ele>151</ele>
        <time>2012-05-12T07:08:48Z</time>
      </trkpt>
      <trkpt lat="49.09552" lon="0.73713">
        <ele>151</ele>
        <time>2012-05-12T07:09:03Z</time>
      </trkpt>
      <trkpt lat="49.0951" lon="0.73721">
        <ele>151</ele>
        <time>2012-05-12T07:09:16Z</time>
      </trkpt>
      <trkpt lat="49.09486" lon="0.73661">
        <ele>152</ele>
        <time>2012-05-12T07:09:27Z</time>
      </trkpt>
      <trkpt lat="49.09465" lon="0.73594">
        <ele>152</ele>
        <time>2012-05-12T07:09:39Z</time>
      </trkpt>
      <trkpt lat="49.0944" lon="0.73523">
        <ele>151</ele>
        <time>2012-05-12T07:09:50Z</time>
      </trkpt>
      <trkpt lat="49.09412" lon="0.73452">
        <ele>152</ele>
        <time>2012-05-12T07:10:01Z</time>
      </trkpt>
      <trkpt lat="49.09384" lon="0.73379">
        <ele>151</ele>
        <time>2012-05-12T07:10:11Z</time>
      </trkpt>
      <trkpt lat="49.09358" lon="0.7331">
        <ele>151</ele>
        <time>2012-05-12T07:10:21Z</time>
      </trkpt>
      <trkpt lat="49.09337" lon="0.73242">
        <ele>152</ele>
        <time>2012-05-12T07:10:32Z</time>
      </trkpt>
      <trkpt lat="49.09315" lon="0.73173">
        <ele>154</ele>
        <time>2012-05-12T07:10:44Z</time>
      </trkpt>
      <trkpt lat="49.09292" lon="0.73108">
        <ele>154</ele>
        <time>2012-05-12T07:10:54Z</time>
      </trkpt>
      <trkpt lat="49.09269" lon="0.73045">
        <ele>154</ele>
        <time>2012-05-12T07:11:04Z</time>
      </trkpt>
      <trkpt lat="49.09247" lon="0.72981">
        <ele>157</ele>
        <time>2012-05-12T07:11:14Z</time>
      </trkpt>
      <trkpt lat="49.09224" lon="0.72917">
        <ele>158</ele>
        <time>2012-05-12T07:11:24Z</time>
      </trkpt>
      <trkpt lat="49.09201" lon="0.72853">
        <ele>159</ele>
        <time>2012-05-12T07:11:33Z</time>
      </trkpt>
      <trkpt lat="49.09177" lon="0.72788">
        <ele>159</ele>
        <time>2012-05-12T07:11:43Z</time>
      </trkpt>
      <trkpt lat="49.09154" lon="0.72721">
        <ele>160</ele>
        <time>2012-05-12T07:11:53Z</time>
      </trkpt>
      <trkpt lat="49.09133" lon="0.7265">
        <ele>160</ele>
        <time>2012-05-12T07:12:04Z</time>
      </trkpt>
      <trkpt lat="49.09109" lon="0.72585">
        <ele>161</ele>
        <time>2012-05-12T07:12:15Z</time>
      </trkpt>
      <trkpt lat="49.09086" lon="0.72517">
        <ele>160</ele>
        <time>2012-05-12T07:12:26Z</time>
      </trkpt>
      <trkpt lat="49.09059" lon="0.72446">
        <ele>159</ele>
        <time>2012-05-12T07:12:37Z</time>
      </trkpt>
      <trkpt lat="49.09037" lon="0.72376">
        <ele>160</ele>
        <time>2012-05-12T07:12:48Z</time>
      </trkpt>
      <trkpt lat="49.09013" lon="0.72305">
        <ele>162</ele>
        <time>2012-05-12T07:12:59Z</time>
      </trkpt>
      <trkpt lat="49.08987" lon="0.72229">
        <ele>162</ele>
        <time>2012-05-12T07:13:12Z</time>
      </trkpt>
      <trkpt lat="49.08961" lon="0.72151">
        <ele>161</ele>
        <time>2012-05-12T07:13:22Z</time>
      </trkpt>
      <trkpt lat="49.08938" lon="0.72068">
        <ele>161</ele>
        <time>2012-05-12T07:13:32Z</time>
      </trkpt>
      <trkpt lat="49.08905" lon="0.71994">
        <ele>161</ele>
        <time>2012-05-12T07:13:42Z</time>
      </trkpt>
      <trkpt lat="49.0887" lon="0.71915">
        <ele>160</ele>
        <time>2012-05-12T07:13:52Z</time>
      </trkpt>
      <trkpt lat="49.08849" lon="0.71848">
        <ele>160</ele>
        <time>2012-05-12T07:14:01Z</time>
      </trkpt>
      <trkpt lat="49.08824" lon="0.71781">
        <ele>158</ele>
        <time>2012-05-12T07:14:10Z</time>
      </trkpt>
      <trkpt lat="49.08797" lon="0.71711">
        <ele>157</ele>
        <time>2012-05-12T07:14:20Z</time>
      </trkpt>
      <trkpt lat="49.08774" lon="0.71632">
        <ele>156</ele>
        <time>2012-05-12T07:14:31Z</time>
      </trkpt>
      <trkpt lat="49.08779" lon="0.71557">
        <ele>157</ele>
        <time>2012-05-12T07:14:43Z</time>
      </trkpt>
      <trkpt lat="49.08809" lon="0.71493">
        <ele>157</ele>
        <time>2012-05-12T07:14:55Z</time>
      </trkpt>
      <trkpt lat="49.08844" lon="0.71432">
        <ele>158</ele>
        <time>2012-05-12T07:15:05Z</time>
      </trkpt>
      <trkpt lat="49.08874" lon="0.71372">
        <ele>158</ele>
        <time>2012-05-12T07:15:15Z</time>
      </trkpt>
      <trkpt lat="49.089" lon="0.71305">
        <ele>158</ele>
        <time>2012-05-12T07:15:25Z</time>
      </trkpt>
      <trkpt lat="49.08931" lon="0.71241">
        <ele>158</ele>
        <time>2012-05-12T07:15:36Z</time>
      </trkpt>
      <trkpt lat="49.0896" lon="0.71175">
        <ele>156</ele>
        <time>2012-05-12T07:16:24Z</time>
      </trkpt>
      <trkpt lat="49.08913" lon="0.71148">
        <ele>157</ele>
        <time>2012-05-12T07:17:52Z</time>
      </trkpt>
      <trkpt lat="49.0886" lon="0.71123">
        <ele>157</ele>
        <time>2012-05-12T07:18:07Z</time>
      </trkpt>
      <trkpt lat="49.08805" lon="0.71098">
        <ele>157</ele>
        <time>2012-05-12T07:18:19Z</time>
      </trkpt>
      <trkpt lat="49.0874" lon="0.71068">
        <ele>155</ele>
        <time>2012-05-12T07:18:33Z</time>
      </trkpt>
      <trkpt lat="49.08681" lon="0.7104">
        <ele>154</ele>
        <time>2012-05-12T07:18:44Z</time>
      </trkpt>
      <trkpt lat="49.08629" lon="0.71017">
        <ele>153</ele>
        <time>2012-05-12T07:18:55Z</time>
      </trkpt>
      <trkpt lat="49.08582" lon="0.70994">
        <ele>152</ele>
        <time>2012-05-12T07:19:06Z</time>
      </trkpt>
      <trkpt lat="49.08527" lon="0.70967">
        <ele>152</ele>
        <time>2012-05-12T07:19:18Z</time>
      </trkpt>
      <trkpt lat="49.08463" lon="0.70927">
        <ele>151</ele>
        <time>2012-05-12T07:19:32Z</time>
      </trkpt>
      <trkpt lat="49.08449" lon="0.7092">
        <ele>151</ele>
        <time>2012-05-12T07:20:45Z</time>
      </trkpt>
      <trkpt lat="49.08493" lon="0.70949">
        <ele>152</ele>
        <time>2012-05-12T07:21:00Z</time>
      </trkpt>
      <trkpt lat="49.08542" lon="0.70975">
        <ele>151</ele>
        <time>2012-05-12T07:21:15Z</time>
      </trkpt>
      <trkpt lat="49.08589" lon="0.70998">
        <ele>151</ele>
        <time>2012-05-12T07:21:33Z</time>
      </trkpt>
      <trkpt lat="49.08635" lon="0.71018">
        <ele>153</ele>
        <time>2012-05-12T07:21:46Z</time>
      </trkpt>
      <trkpt lat="49.08685" lon="0.71043">
        <ele>154</ele>
        <time>2012-05-12T07:22:00Z</time>
      </trkpt>
      <trkpt lat="49.08736" lon="0.71067">
        <ele>155</ele>
        <time>2012-05-12T07:22:15Z</time>
      </trkpt>
      <trkpt lat="49.08784" lon="0.71085">
        <ele>156</ele>
        <time>2012-05-12T07:22:30Z</time>
      </trkpt>
      <trkpt lat="49.08831" lon="0.71105">
        <ele>157</ele>
        <time>2012-05-12T07:22:44Z</time>
      </trkpt>
      <trkpt lat="49.08883" lon="0.71104">
        <ele>157</ele>
        <time>2012-05-12T07:23:54Z</time>
      </trkpt>
      <trkpt lat="49.08927" lon="0.71071">
        <ele>156</ele>
        <time>2012-05-12T07:24:06Z</time>
      </trkpt>
      <trkpt lat="49.08978" lon="0.71035">
        <ele>156</ele>
        <time>2012-05-12T07:24:19Z</time>
      </trkpt>
      <trkpt lat="49.09023" lon="0.71005">
        <ele>155</ele>
        <time>2012-05-12T07:24:31Z</time>
      </trkpt>
      <trkpt lat="49.09061" lon="0.70955">
        <ele>155</ele>
        <time>2012-05-12T07:24:44Z</time>
      </trkpt>
      <trkpt lat="49.09061" lon="0.70882">
        <ele>153</ele>
        <time>2012-05-12T07:28:39Z</time>
      </trkpt>
      <trkpt lat="49.09064" lon="0.70808">
        <ele>152</ele>
        <time>2012-05-12T07:28:57Z</time>
      </trkpt>
      <trkpt lat="49.09061" lon="0.70736">
        <ele>152</ele>
        <time>2012-05-12T07:30:41Z</time>
      </trkpt>
      <trkpt lat="49.09063" lon="0.7066">
        <ele>151</ele>
        <time>2012-05-12T07:30:55Z</time>
      </trkpt>
      <trkpt lat="49.09066" lon="0.70587">
        <ele>152</ele>
        <time>2012-05-12T07:31:07Z</time>
      </trkpt>
      <trkpt lat="49.0907" lon="0.70516">
        <ele>152</ele>
        <time>2012-05-12T07:31:20Z</time>
      </trkpt>
      <trkpt lat="49.09084" lon="0.70444">
        <ele>151</ele>
        <time>2012-05-12T07:31:34Z</time>
      </trkpt>
      <trkpt lat="49.09104" lon="0.70372">
        <ele>151</ele>
        <time>2012-05-12T07:31:49Z</time>
      </trkpt>
      <trkpt lat="49.09121" lon="0.70304">
        <ele>150</ele>
        <time>2012-05-12T07:32:00Z</time>
      </trkpt>
      <trkpt lat="49.09136" lon="0.70233">
        <ele>149</ele>
        <time>2012-05-12T07:32:14Z</time>
      </trkpt>
      <trkpt lat="49.09124" lon="0.70165">
        <ele>148</ele>
        <time>2012-05-12T07:32:25Z</time>
      </trkpt>
      <trkpt lat="49.09138" lon="0.70095">
        <ele>147</ele>
        <time>2012-05-12T07:32:35Z</time>
      </trkpt>
      <trkpt lat="49.09165" lon="0.70039">
        <ele>145</ele>
        <time>2012-05-12T07:32:45Z</time>
      </trkpt>
      <trkpt lat="49.09198" lon="0.6998">
        <ele>143</ele>
        <time>2012-05-12T07:32:55Z</time>
      </trkpt>
      <trkpt lat="49.09221" lon="0.69911">
        <ele>137</ele>
        <time>2012-05-12T07:33:06Z</time>
      </trkpt>
      <trkpt lat="49.09245" lon="0.69849">
        <ele>134</ele>
        <time>2012-05-12T07:33:17Z</time>
      </trkpt>
      <trkpt lat="49.09279" lon="0.69795">
        <ele>126</ele>
        <time>2012-05-12T07:33:28Z</time>
      </trkpt>
      <trkpt lat="49.09298" lon="0.69722">
        <ele>114</ele>
        <time>2012-05-12T07:33:36Z</time>
      </trkpt>
      <trkpt lat="49.09315" lon="0.69652">
        <ele>105</ele>
        <time>2012-05-12T07:33:45Z</time>
      </trkpt>
      <trkpt lat="49.09328" lon="0.69587">
        <ele>100</ele>
        <time>2012-05-12T07:33:54Z</time>
      </trkpt>
      <trkpt lat="49.0935" lon="0.69511">
        <ele>90</ele>
        <time>2012-05-12T07:34:03Z</time>
      </trkpt>
      <trkpt lat="49.09346" lon="0.69431">
        <ele>86</ele>
        <time>2012-05-12T07:34:10Z</time>
      </trkpt>
      <trkpt lat="49.09319" lon="0.6938">
        <ele>87</ele>
        <time>2012-05-12T07:35:06Z</time>
      </trkpt>
      <trkpt lat="49.09278" lon="0.69344">
        <ele>88</ele>
        <time>2012-05-12T07:35:14Z</time>
      </trkpt>
      <trkpt lat="49.09235" lon="0.69306">
        <ele>88</ele>
        <time>2012-05-12T07:35:21Z</time>
      </trkpt>
      <trkpt lat="49.09191" lon="0.69267">
        <ele>87</ele>
        <time>2012-05-12T07:35:28Z</time>
      </trkpt>
      <trkpt lat="49.09197" lon="0.69206">
        <ele>86</ele>
        <time>2012-05-12T07:35:35Z</time>
      </trkpt>
      <trkpt lat="49.0923" lon="0.69151">
        <ele>85</ele>
        <time>2012-05-12T07:35:43Z</time>
      </trkpt>
      <trkpt lat="49.09269" lon="0.69109">
        <ele>84</ele>
        <time>2012-05-12T07:35:52Z</time>
      </trkpt>
      <trkpt lat="49.09292" lon="0.69052">
        <ele>83</ele>
        <time>2012-05-12T07:36:01Z</time>
      </trkpt>
      <trkpt lat="49.09312" lon="0.68986">
        <ele>83</ele>
        <time>2012-05-12T07:36:09Z</time>
      </trkpt>
      <trkpt lat="49.09334" lon="0.68914">
        <ele>82</ele>
        <time>2012-05-12T07:36:16Z</time>
      </trkpt>
      <trkpt lat="49.09351" lon="0.6884">
        <ele>83</ele>
        <time>2012-05-12T07:36:22Z</time>
      </trkpt>
      <trkpt lat="49.09339" lon="0.68764">
        <ele>83</ele>
        <time>2012-05-12T07:36:29Z</time>
      </trkpt>
      <trkpt lat="49.09365" lon="0.68711">
        <ele>83</ele>
        <time>2012-05-12T07:36:37Z</time>
      </trkpt>
      <trkpt lat="49.09399" lon="0.68657">
        <ele>85</ele>
        <time>2012-05-12T07:36:47Z</time>
      </trkpt>
      <trkpt lat="49.09431" lon="0.68612">
        <ele>93</ele>
        <time>2012-05-12T07:36:57Z</time>
      </trkpt>
      <trkpt lat="49.09471" lon="0.6864">
        <ele>94</ele>
        <time>2012-05-12T07:37:10Z</time>
      </trkpt>
      <trkpt lat="49.09509" lon="0.68686">
        <ele>93</ele>
        <time>2012-05-12T07:37:20Z</time>
      </trkpt>
      <trkpt lat="49.09545" lon="0.6873">
        <ele>92</ele>
        <time>2012-05-12T07:37:30Z</time>
      </trkpt>
      <trkpt lat="49.09582" lon="0.68772">
        <ele>87</ele>
        <time>2012-05-12T07:37:40Z</time>
      </trkpt>
      <trkpt lat="49.09621" lon="0.68818">
        <ele>90</ele>
        <time>2012-05-12T07:37:50Z</time>
      </trkpt>
      <trkpt lat="49.09658" lon="0.6886">
        <ele>88</ele>
        <time>2012-05-12T07:37:59Z</time>
      </trkpt>
      <trkpt lat="49.09698" lon="0.68904">
        <ele>89</ele>
        <time>2012-05-12T07:38:09Z</time>
      </trkpt>
      <trkpt lat="49.09735" lon="0.68947">
        <ele>85</ele>
        <time>2012-05-12T07:38:19Z</time>
      </trkpt>
      <trkpt lat="49.09773" lon="0.68956">
        <ele>85</ele>
        <time>2012-05-12T07:38:31Z</time>
      </trkpt>
      <trkpt lat="49.09797" lon="0.68895">
        <ele>89</ele>
        <time>2012-05-12T07:38:44Z</time>
      </trkpt>
      <trkpt lat="49.09776" lon="0.68848">
        <ele>91</ele>
        <time>2012-05-12T07:38:59Z</time>
      </trkpt>
      <trkpt lat="49.09731" lon="0.68814">
        <ele>94</ele>
        <time>2012-05-12T07:39:18Z</time>
      </trkpt>
      <trkpt lat="49.09733" lon="0.68749">
        <ele>97</ele>
        <time>2012-05-12T07:51:42Z</time>
      </trkpt>
      <trkpt lat="49.09752" lon="0.68691">
        <ele>101</ele>
        <time>2012-05-12T07:52:10Z</time>
      </trkpt>
      <trkpt lat="49.09775" lon="0.68629">
        <ele>107</ele>
        <time>2012-05-12T07:52:37Z</time>
      </trkpt>
      <trkpt lat="49.09799" lon="0.68569">
        <ele>113</ele>
        <time>2012-05-12T07:53:05Z</time>
      </trkpt>
      <trkpt lat="49.0982" lon="0.68506">
        <ele>118</ele>
        <time>2012-05-12T07:53:30Z</time>
      </trkpt>
      <trkpt lat="49.09843" lon="0.68444">
        <ele>126</ele>
        <time>2012-05-12T07:54:00Z</time>
      </trkpt>
      <trkpt lat="49.09867" lon="0.68377">
        <ele>134</ele>
        <time>2012-05-12T07:54:25Z</time>
      </trkpt>
      <trkpt lat="49.09887" lon="0.68312">
        <ele>138</ele>
        <time>2012-05-12T07:54:44Z</time>
      </trkpt>
      <trkpt lat="49.09912" lon="0.68247">
        <ele>141</ele>
        <time>2012-05-12T07:55:06Z</time>
      </trkpt>
      <trkpt lat="49.09935" lon="0.68181">
        <ele>143</ele>
        <time>2012-05-12T07:55:25Z</time>
      </trkpt>
      <trkpt lat="49.09957" lon="0.68118">
        <ele>147</ele>
        <time>2012-05-12T07:55:44Z</time>
      </trkpt>
      <trkpt lat="49.09981" lon="0.68053">
        <ele>150</ele>
        <time>2012-05-12T07:57:33Z</time>
      </trkpt>
      <trkpt lat="49.10003" lon="0.67991">
        <ele>151</ele>
        <time>2012-05-12T07:57:46Z</time>
      </trkpt>
      <trkpt lat="49.10025" lon="0.67927">
        <ele>150</ele>
        <time>2012-05-12T07:57:58Z</time>
      </trkpt>
      <trkpt lat="49.10044" lon="0.67864">
        <ele>152</ele>
        <time>2012-05-12T07:58:09Z</time>
      </trkpt>
      <trkpt lat="49.10067" lon="0.67798">
        <ele>153</ele>
        <time>2012-05-12T07:58:20Z</time>
      </trkpt>
      <trkpt lat="49.1009" lon="0.67737">
        <ele>153</ele>
        <time>2012-05-12T07:58:30Z</time>
      </trkpt>
      <trkpt lat="49.10112" lon="0.67675">
        <ele>153</ele>
        <time>2012-05-12T07:58:40Z</time>
      </trkpt>
      <trkpt lat="49.10134" lon="0.67612">
        <ele>151</ele>
        <time>2012-05-12T07:58:50Z</time>
      </trkpt>
      <trkpt lat="49.10157" lon="0.67548">
        <ele>150</ele>
        <time>2012-05-12T07:59:00Z</time>
      </trkpt>
      <trkpt lat="49.10179" lon="0.67484">
        <ele>149</ele>
        <time>2012-05-12T07:59:10Z</time>
      </trkpt>
      <trkpt lat="49.10201" lon="0.67421">
        <ele>148</ele>
        <time>2012-05-12T07:59:19Z</time>
      </trkpt>
      <trkpt lat="49.10223" lon="0.67355">
        <ele>148</ele>
        <time>2012-05-12T07:59:28Z</time>
      </trkpt>
      <trkpt lat="49.10243" lon="0.67292">
        <ele>148</ele>
        <time>2012-05-12T07:59:36Z</time>
      </trkpt>
      <trkpt lat="49.10267" lon="0.67224">
        <ele>148</ele>
        <time>2012-05-12T07:59:45Z</time>
      </trkpt>
      <trkpt lat="49.10291" lon="0.67156">
        <ele>148</ele>
        <time>2012-05-12T07:59:54Z</time>
      </trkpt>
      <trkpt lat="49.10314" lon="0.67086">
        <ele>148</ele>
        <time>2012-05-12T08:00:03Z</time>
      </trkpt>
      <trkpt lat="49.1034" lon="0.67019">
        <ele>147</ele>
        <time>2012-05-12T08:00:14Z</time>
      </trkpt>
      <trkpt lat="49.10365" lon="0.66961">
        <ele>148</ele>
        <time>2012-05-12T08:00:25Z</time>
      </trkpt>
      <trkpt lat="49.10394" lon="0.669">
        <ele>148</ele>
        <time>2012-05-12T08:00:36Z</time>
      </trkpt>
      <trkpt lat="49.10424" lon="0.66838">
        <ele>147</ele>
        <time>2012-05-12T08:00:46Z</time>
      </trkpt>
      <trkpt lat="49.10418" lon="0.66762">
        <ele>147</ele>
        <time>2012-05-12T08:00:56Z</time>
      </trkpt>
      <trkpt lat="49.10409" lon="0.6669">
        <ele>146</ele>
        <time>2012-05-12T08:01:06Z</time>
      </trkpt>
      <trkpt lat="49.10401" lon="0.66619">
        <ele>146</ele>
        <time>2012-05-12T08:01:16Z</time>
      </trkpt>
      <trkpt lat="49.1039" lon="0.66546">
        <ele>146</ele>
        <time>2012-05-12T08:01:26Z</time>
      </trkpt>
      <trkpt lat="49.1038" lon="0.66473">
        <ele>147</ele>
        <time>2012-05-12T08:01:36Z</time>
      </trkpt>
      <trkpt lat="49.10372" lon="0.66404">
        <ele>147</ele>
        <time>2012-05-12T08:01:46Z</time>
      </trkpt>
      <trkpt lat="49.10364" lon="0.6633">
        <ele>148</ele>
        <time>2012-05-12T08:01:59Z</time>
      </trkpt>
      <trkpt lat="49.10353" lon="0.6625">
        <ele>147</ele>
        <time>2012-05-12T08:02:13Z</time>
      </trkpt>
      <trkpt lat="49.10343" lon="0.66173">
        <ele>149</ele>
        <time>2012-05-12T08:02:27Z</time>
      </trkpt>
      <trkpt lat="49.10334" lon="0.66091">
        <ele>148</ele>
        <time>2012-05-12T08:03:26Z</time>
      </trkpt>
      <trkpt lat="49.10334" lon="0.66016">
        <ele>142</ele>
        <time>2012-05-12T08:03:39Z</time>
      </trkpt>
      <trkpt lat="49.10355" lon="0.65954">
        <ele>137</ele>
        <time>2012-05-12T08:03:48Z</time>
      </trkpt>
      <trkpt lat="49.10383" lon="0.65888">
        <ele>130</ele>
        <time>2012-05-12T08:04:00Z</time>
      </trkpt>
      <trkpt lat="49.10403" lon="0.65813">
        <ele>120</ele>
        <time>2012-05-12T08:04:16Z</time>
      </trkpt>
      <trkpt lat="49.10391" lon="0.65741">
        <ele>109</ele>
        <time>2012-05-12T08:04:31Z</time>
      </trkpt>
      <trkpt lat="49.10353" lon="0.65708">
        <ele>107</ele>
        <time>2012-05-12T08:04:46Z</time>
      </trkpt>
      <trkpt lat="49.1033" lon="0.65647">
        <ele>108</ele>
        <time>2012-05-12T08:05:01Z</time>
      </trkpt>
      <trkpt lat="49.10308" lon="0.65582">
        <ele>112</ele>
        <time>2012-05-12T08:05:17Z</time>
      </trkpt>
      <trkpt lat="49.10293" lon="0.65518">
        <ele>113</ele>
        <time>2012-05-12T08:05:33Z</time>
      </trkpt>
      <trkpt lat="49.1028" lon="0.65451">
        <ele>117</ele>
        <time>2012-05-12T08:05:49Z</time>
      </trkpt>
      <trkpt lat="49.10259" lon="0.65385">
        <ele>121</ele>
        <time>2012-05-12T08:06:07Z</time>
      </trkpt>
      <trkpt lat="49.10244" lon="0.65318">
        <ele>129</ele>
        <time>2012-05-12T08:06:33Z</time>
      </trkpt>
      <trkpt lat="49.1024" lon="0.65238">
        <ele>136</ele>
        <time>2012-05-12T08:07:07Z</time>
      </trkpt>
      <trkpt lat="49.10231" lon="0.65164">
        <ele>142</ele>
        <time>2012-05-12T08:07:34Z</time>
      </trkpt>
      <trkpt lat="49.10219" lon="0.65109">
        <ele>146</ele>
        <time>2012-05-12T08:08:18Z</time>
      </trkpt>
      <trkpt lat="49.10191" lon="0.65049">
        <ele>152</ele>
        <time>2012-05-12T08:08:34Z</time>
      </trkpt>
      <trkpt lat="49.10161" lon="0.6499">
        <ele>154</ele>
        <time>2012-05-12T08:08:49Z</time>
      </trkpt>
      <trkpt lat="49.10125" lon="0.64937">
        <ele>153</ele>
        <time>2012-05-12T08:09:02Z</time>
      </trkpt>
      <trkpt lat="49.10098" lon="0.64879">
        <ele>153</ele>
        <time>2012-05-12T08:09:14Z</time>
      </trkpt>
      <trkpt lat="49.10059" lon="0.64847">
        <ele>152</ele>
        <time>2012-05-12T08:09:28Z</time>
      </trkpt>
      <trkpt lat="49.10033" lon="0.64794">
        <ele>153</ele>
        <time>2012-05-12T08:11:28Z</time>
      </trkpt>
      <trkpt lat="49.10041" lon="0.64713">
        <ele>154</ele>
        <time>2012-05-12T08:11:49Z</time>
      </trkpt>
      <trkpt lat="49.10049" lon="0.64638">
        <ele>154</ele>
        <time>2012-05-12T08:12:00Z</time>
      </trkpt>
      <trkpt lat="49.1005" lon="0.64565">
        <ele>154</ele>
        <time>2012-05-12T08:12:13Z</time>
      </trkpt>
      <trkpt lat="49.10051" lon="0.64487">
        <ele>153</ele>
        <time>2012-05-12T08:12:31Z</time>
      </trkpt>
      <trkpt lat="49.10076" lon="0.64425">
        <ele>153</ele>
        <time>2012-05-12T08:12:43Z</time>
      </trkpt>
      <trkpt lat="49.10101" lon="0.64364">
        <ele>154</ele>
        <time>2012-05-12T08:12:56Z</time>
      </trkpt>
      <trkpt lat="49.10119" lon="0.64297">
        <ele>154</ele>
        <time>2012-05-12T08:13:10Z</time>
      </trkpt>
      <trkpt lat="49.10144" lon="0.64228">
        <ele>153</ele>
        <time>2012-05-12T08:13:29Z</time>
      </trkpt>
      <trkpt lat="49.10176" lon="0.64175">
        <ele>153</ele>
        <time>2012-05-12T08:13:41Z</time>
      </trkpt>
      <trkpt lat="49.10219" lon="0.64162">
        <ele>153</ele>
        <time>2012-05-12T08:14:10Z</time>
      </trkpt>
      <trkpt lat="49.10272" lon="0.64145">
        <ele>155</ele>
        <time>2012-05-12T08:14:29Z</time>
      </trkpt>
      <trkpt lat="49.1032" lon="0.64112">
        <ele>156</ele>
        <time>2012-05-12T08:14:44Z</time>
      </trkpt>
      <trkpt lat="49.10375" lon="0.64112">
        <ele>157</ele>
        <time>2012-05-12T08:15:00Z</time>
      </trkpt>
      <trkpt lat="49.10437" lon="0.64091">
        <ele>157</ele>
        <time>2012-05-12T08:15:14Z</time>
      </trkpt>
      <trkpt lat="49.10484" lon="0.64054">
        <ele>158</ele>
        <time>2012-05-12T08:15:25Z</time>
      </trkpt>
      <trkpt lat="49.10539" lon="0.64028">
        <ele>158</ele>
        <time>2012-05-12T08:15:38Z</time>
      </trkpt>
      <trkpt lat="49.10598" lon="0.64">
        <ele>156</ele>
        <time>2012-05-12T08:15:52Z</time>
      </trkpt>
      <trkpt lat="49.10655" lon="0.6394">
        <ele>155</ele>
        <time>2012-05-12T08:16:07Z</time>
      </trkpt>
      <trkpt lat="49.10685" lon="0.63863">
        <ele>153</ele>
        <time>2012-05-12T08:16:17Z</time>
      </trkpt>
      <trkpt lat="49.10707" lon="0.63796">
        <ele>153</ele>
        <time>2012-05-12T08:16:26Z</time>
      </trkpt>
      <trkpt lat="49.10739" lon="0.63732">
        <ele>152</ele>
        <time>2012-05-12T08:16:35Z</time>
      </trkpt>
      <trkpt lat="49.10772" lon="0.6367">
        <ele>151</ele>
        <time>2012-05-12T08:16:44Z</time>
      </trkpt>
      <trkpt lat="49.10802" lon="0.63608">
        <ele>150</ele>
        <time>2012-05-12T08:16:53Z</time>
      </trkpt>
      <trkpt lat="49.10824" lon="0.63541">
        <ele>149</ele>
        <time>2012-05-12T08:17:02Z</time>
      </trkpt>
      <trkpt lat="49.10846" lon="0.63467">
        <ele>149</ele>
        <time>2012-05-12T08:17:12Z</time>
      </trkpt>
      <trkpt lat="49.10868" lon="0.63397">
        <ele>147</ele>
        <time>2012-05-12T08:17:23Z</time>
      </trkpt>
      <trkpt lat="49.10867" lon="0.63325">
        <ele>146</ele>
        <time>2012-05-12T08:19:05Z</time>
      </trkpt>
      <trkpt lat="49.10871" lon="0.63256">
        <ele>146</ele>
        <time>2012-05-12T08:19:19Z</time>
      </trkpt>
      <trkpt lat="49.10885" lon="0.63186">
        <ele>147</ele>
        <time>2012-05-12T08:19:31Z</time>
      </trkpt>
      <trkpt lat="49.10905" lon="0.63118">
        <ele>147</ele>
        <time>2012-05-12T08:19:42Z</time>
      </trkpt>
      <trkpt lat="49.10921" lon="0.63051">
        <ele>147</ele>
        <time>2012-05-12T08:19:52Z</time>
      </trkpt>
      <trkpt lat="49.10927" lon="0.62979">
        <ele>146</ele>
        <time>2012-05-12T08:20:00Z</time>
      </trkpt>
      <trkpt lat="49.10919" lon="0.6291">
        <ele>145</ele>
        <time>2012-05-12T08:20:07Z</time>
      </trkpt>
      <trkpt lat="49.10904" lon="0.62838">
        <ele>145</ele>
        <time>2012-05-12T08:20:16Z</time>
      </trkpt>
      <trkpt lat="49.10896" lon="0.62764">
        <ele>146</ele>
        <time>2012-05-12T08:20:25Z</time>
      </trkpt>
      <trkpt lat="49.10887" lon="0.62691">
        <ele>146</ele>
        <time>2012-05-12T08:20:34Z</time>
      </trkpt>
      <trkpt lat="49.10878" lon="0.62623">
        <ele>147</ele>
        <time>2012-05-12T08:20:43Z</time>
      </trkpt>
      <trkpt lat="49.10859" lon="0.62561">
        <ele>149</ele>
        <time>2012-05-12T08:20:52Z</time>
      </trkpt>
      <trkpt lat="49.10834" lon="0.62498">
        <ele>150</ele>
        <time>2012-05-12T08:21:02Z</time>
      </trkpt>
      <trkpt lat="49.10819" lon="0.62433">
        <ele>152</ele>
        <time>2012-05-12T08:21:12Z</time>
      </trkpt>
      <trkpt lat="49.10798" lon="0.62369">
        <ele>153</ele>
        <time>2012-05-12T08:21:23Z</time>
      </trkpt>
      <trkpt lat="49.10768" lon="0.62316">
        <ele>154</ele>
        <time>2012-05-12T08:21:33Z</time>
      </trkpt>
      <trkpt lat="49.10738" lon="0.62266">
        <ele>155</ele>
        <time>2012-05-12T08:21:43Z</time>
      </trkpt>
      <trkpt lat="49.10706" lon="0.62214">
        <ele>154</ele>
        <time>2012-05-12T08:21:53Z</time>
      </trkpt>
      <trkpt lat="49.10673" lon="0.62162">
        <ele>154</ele>
        <time>2012-05-12T08:22:03Z</time>
      </trkpt>
      <trkpt lat="49.10643" lon="0.6211">
        <ele>153</ele>
        <time>2012-05-12T08:22:12Z</time>
      </trkpt>
      <trkpt lat="49.10609" lon="0.62057">
        <ele>154</ele>
        <time>2012-05-12T08:22:21Z</time>
      </trkpt>
      <trkpt lat="49.10575" lon="0.62005">
        <ele>155</ele>
        <time>2012-05-12T08:22:30Z</time>
      </trkpt>
      <trkpt lat="49.10541" lon="0.61951">
        <ele>155</ele>
        <time>2012-05-12T08:22:39Z</time>
      </trkpt>
      <trkpt lat="49.10512" lon="0.61899">
        <ele>156</ele>
        <time>2012-05-12T08:22:48Z</time>
      </trkpt>
      <trkpt lat="49.10475" lon="0.61925">
        <ele>155</ele>
        <time>2012-05-12T08:22:58Z</time>
      </trkpt>
      <trkpt lat="49.10435" lon="0.6197">
        <ele>154</ele>
        <time>2012-05-12T08:23:08Z</time>
      </trkpt>
      <trkpt lat="49.10393" lon="0.6201">
        <ele>154</ele>
        <time>2012-05-12T08:23:18Z</time>
      </trkpt>
      <trkpt lat="49.10354" lon="0.62056">
        <ele>154</ele>
        <time>2012-05-12T08:23:28Z</time>
      </trkpt>
      <trkpt lat="49.10314" lon="0.62099">
        <ele>154</ele>
        <time>2012-05-12T08:23:38Z</time>
      </trkpt>
      <trkpt lat="49.10272" lon="0.62123">
        <ele>153</ele>
        <time>2012-05-12T08:23:47Z</time>
      </trkpt>
      <trkpt lat="49.10226" lon="0.62146">
        <ele>153</ele>
        <time>2012-05-12T08:23:56Z</time>
      </trkpt>
      <trkpt lat="49.10185" lon="0.6218">
        <ele>151</ele>
        <time>2012-05-12T08:24:05Z</time>
      </trkpt>
      <trkpt lat="49.10141" lon="0.6221">
        <ele>150</ele>
        <time>2012-05-12T08:24:14Z</time>
      </trkpt>
      <trkpt lat="49.10095" lon="0.62228">
        <ele>149</ele>
        <time>2012-05-12T08:24:24Z</time>
      </trkpt>
      <trkpt lat="49.1005" lon="0.62248">
        <ele>149</ele>
        <time>2012-05-12T08:24:33Z</time>
      </trkpt>
      <trkpt lat="49.10013" lon="0.62223">
        <ele>150</ele>
        <time>2012-05-12T08:24:43Z</time>
      </trkpt>
      <trkpt lat="49.09995" lon="0.62152">
        <ele>149</ele>
        <time>2012-05-12T08:24:54Z</time>
      </trkpt>
      <trkpt lat="49.09977" lon="0.62083">
        <ele>149</ele>
        <time>2012-05-12T08:25:05Z</time>
      </trkpt>
      <trkpt lat="49.09959" lon="0.62013">
        <ele>149</ele>
        <time>2012-05-12T08:25:15Z</time>
      </trkpt>
      <trkpt lat="49.09943" lon="0.61943">
        <ele>151</ele>
        <time>2012-05-12T08:25:25Z</time>
      </trkpt>
      <trkpt lat="49.09926" lon="0.61873">
        <ele>153</ele>
        <time>2012-05-12T08:25:35Z</time>
      </trkpt>
      <trkpt lat="49.09908" lon="0.61804">
        <ele>152</ele>
        <time>2012-05-12T08:25:45Z</time>
      </trkpt>
      <trkpt lat="49.09897" lon="0.61728">
        <ele>151</ele>
        <time>2012-05-12T08:25:55Z</time>
      </trkpt>
      <trkpt lat="49.09893" lon="0.61655">
        <ele>151</ele>
        <time>2012-05-12T08:26:05Z</time>
      </trkpt>
      <trkpt lat="49.09891" lon="0.61581">
        <ele>152</ele>
        <time>2012-05-12T08:26:15Z</time>
      </trkpt>
      <trkpt lat="49.09891" lon="0.6151">
        <ele>153</ele>
        <time>2012-05-12T08:26:24Z</time>
      </trkpt>
      <trkpt lat="49.09894" lon="0.61435">
        <ele>152</ele>
        <time>2012-05-12T08:26:33Z</time>
      </trkpt>
      <trkpt lat="49.09899" lon="0.61365">
        <ele>150</ele>
        <time>2012-05-12T08:26:44Z</time>
      </trkpt>
      <trkpt lat="49.09854" lon="0.61361">
        <ele>149</ele>
        <time>2012-05-12T08:27:11Z</time>
      </trkpt>
      <trkpt lat="49.09803" lon="0.61377">
        <ele>141</ele>
        <time>2012-05-12T08:27:23Z</time>
      </trkpt>
      <trkpt lat="49.09778" lon="0.61452">
        <ele>139</ele>
        <time>2012-05-12T08:27:33Z</time>
      </trkpt>
      <trkpt lat="49.09746" lon="0.61512">
        <ele>124</ele>
        <time>2012-05-12T08:27:40Z</time>
      </trkpt>
      <trkpt lat="49.09727" lon="0.6158">
        <ele>121</ele>
        <time>2012-05-12T08:27:47Z</time>
      </trkpt>
      <trkpt lat="49.09713" lon="0.61659">
        <ele>118</ele>
        <time>2012-05-12T08:28:15Z</time>
      </trkpt>
      <trkpt lat="49.09703" lon="0.61694">
        <ele>116</ele>
        <time>2012-05-12T08:28:45Z</time>
      </trkpt>
      <trkpt lat="49.09706" lon="0.61624">
        <ele>116</ele>
        <time>2012-05-12T08:30:01Z</time>
      </trkpt>
      <trkpt lat="49.09693" lon="0.61554">
        <ele>113</ele>
        <time>2012-05-12T08:30:13Z</time>
      </trkpt>
      <trkpt lat="49.09678" lon="0.61484">
        <ele>111</ele>
        <time>2012-05-12T08:30:23Z</time>
      </trkpt>
      <trkpt lat="49.09663" lon="0.61415">
        <ele>106</ele>
        <time>2012-05-12T08:30:32Z</time>
      </trkpt>
      <trkpt lat="49.09648" lon="0.61346">
        <ele>104</ele>
        <time>2012-05-12T08:30:41Z</time>
      </trkpt>
      <trkpt lat="49.09633" lon="0.61282">
        <ele>105</ele>
        <time>2012-05-12T08:30:50Z</time>
      </trkpt>
      <trkpt lat="49.09618" lon="0.61212">
        <ele>106</ele>
        <time>2012-05-12T08:31:00Z</time>
      </trkpt>
      <trkpt lat="49.09601" lon="0.6114">
        <ele>107</ele>
        <time>2012-05-12T08:31:10Z</time>
      </trkpt>
      <trkpt lat="49.09586" lon="0.6107">
        <ele>107</ele>
        <time>2012-05-12T08:31:20Z</time>
      </trkpt>
      <trkpt lat="49.09571" lon="0.61">
        <ele>107</ele>
        <time>2012-05-12T08:31:31Z</time>
      </trkpt>
      <trkpt lat="49.09556" lon="0.60934">
        <ele>108</ele>
        <time>2012-05-12T08:31:42Z</time>
      </trkpt>
      <trkpt lat="49.09541" lon="0.60867">
        <ele>109</ele>
        <time>2012-05-12T08:31:53Z</time>
      </trkpt>
      <trkpt lat="49.09526" lon="0.60802">
        <ele>112</ele>
        <time>2012-05-12T08:32:04Z</time>
      </trkpt>
      <trkpt lat="49.09511" lon="0.60733">
        <ele>114</ele>
        <time>2012-05-12T08:32:15Z</time>
      </trkpt>
      <trkpt lat="49.09491" lon="0.60667">
        <ele>112</ele>
        <time>2012-05-12T08:32:26Z</time>
      </trkpt>
      <trkpt lat="49.09472" lon="0.60604">
        <ele>112</ele>
        <time>2012-05-12T08:32:36Z</time>
      </trkpt>
      <trkpt lat="49.09451" lon="0.60536">
        <ele>112</ele>
        <time>2012-05-12T08:32:46Z</time>
      </trkpt>
      <trkpt lat="49.0943" lon="0.60475">
        <ele>112</ele>
        <time>2012-05-12T08:32:55Z</time>
      </trkpt>
      <trkpt lat="49.09408" lon="0.60406">
        <ele>112</ele>
        <time>2012-05-12T08:33:05Z</time>
      </trkpt>
      <trkpt lat="49.09388" lon="0.60345">
        <ele>112</ele>
        <time>2012-05-12T08:33:14Z</time>
      </trkpt>
      <trkpt lat="49.09366" lon="0.6028">
        <ele>112</ele>
        <time>2012-05-12T08:33:24Z</time>
      </trkpt>
      <trkpt lat="49.0935" lon="0.60216">
        <ele>112</ele>
        <time>2012-05-12T08:33:36Z</time>
      </trkpt>
      <trkpt lat="49.09373" lon="0.60163">
        <ele>114</ele>
        <time>2012-05-12T08:33:49Z</time>
      </trkpt>
      <trkpt lat="49.09335" lon="0.60123">
        <ele>113</ele>
        <time>2012-05-12T08:34:02Z</time>
      </trkpt>
      <trkpt lat="49.09289" lon="0.60092">
        <ele>109</ele>
        <time>2012-05-12T08:34:12Z</time>
      </trkpt>
      <trkpt lat="49.09246" lon="0.6006">
        <ele>106</ele>
        <time>2012-05-12T08:34:21Z</time>
      </trkpt>
      <trkpt lat="49.09204" lon="0.60018">
        <ele>107</ele>
        <time>2012-05-12T08:34:31Z</time>
      </trkpt>
      <trkpt lat="49.09181" lon="0.59959">
        <ele>108</ele>
        <time>2012-05-12T08:34:41Z</time>
      </trkpt>
      <trkpt lat="49.09159" lon="0.59895">
        <ele>110</ele>
        <time>2012-05-12T08:34:53Z</time>
      </trkpt>
      <trkpt lat="49.09172" lon="0.59837">
        <ele>109</ele>
        <time>2012-05-12T08:35:18Z</time>
      </trkpt>
      <trkpt lat="49.09143" lon="0.59782">
        <ele>110</ele>
        <time>2012-05-12T08:35:33Z</time>
      </trkpt>
      <trkpt lat="49.09121" lon="0.59721">
        <ele>110</ele>
        <time>2012-05-12T08:35:51Z</time>
      </trkpt>
      <trkpt lat="49.09136" lon="0.59659">
        <ele>109</ele>
        <time>2012-05-12T08:36:13Z</time>
      </trkpt>
      <trkpt lat="49.09145" lon="0.59592">
        <ele>109</ele>
        <time>2012-05-12T08:36:37Z</time>
      </trkpt>
      <trkpt lat="49.09134" lon="0.5952">
        <ele>109</ele>
        <time>2012-05-12T08:36:50Z</time>
      </trkpt>
      <trkpt lat="49.09148" lon="0.59472">
        <ele>109</ele>
        <time>2012-05-12T08:37:02Z</time>
      </trkpt>
      <trkpt lat="49.09136" lon="0.59423">
        <ele>109</ele>
        <time>2012-05-12T08:37:21Z</time>
      </trkpt>
      <trkpt lat="49.09096" lon="0.59387">
        <ele>110</ele>
        <time>2012-05-12T08:37:33Z</time>
      </trkpt>
      <trkpt lat="49.09057" lon="0.59399">
        <ele>109</ele>
        <time>2012-05-12T08:37:47Z</time>
      </trkpt>
      <trkpt lat="49.09025" lon="0.59343">
        <ele>109</ele>
        <time>2012-05-12T08:38:00Z</time>
      </trkpt>
      <trkpt lat="49.09003" lon="0.59278">
        <ele>110</ele>
        <time>2012-05-12T08:38:12Z</time>
      </trkpt>
      <trkpt lat="49.08972" lon="0.59224">
        <ele>111</ele>
        <time>2012-05-12T08:38:24Z</time>
      </trkpt>
      <trkpt lat="49.0894" lon="0.59173">
        <ele>112</ele>
        <time>2012-05-12T08:38:41Z</time>
      </trkpt>
      <trkpt lat="49.08911" lon="0.5923">
        <ele>113</ele>
        <time>2012-05-12T08:38:53Z</time>
      </trkpt>
      <trkpt lat="49.08878" lon="0.59283">
        <ele>114</ele>
        <time>2012-05-12T08:39:05Z</time>
      </trkpt>
      <trkpt lat="49.08845" lon="0.59334">
        <ele>115</ele>
        <time>2012-05-12T08:39:20Z</time>
      </trkpt>
      <trkpt lat="49.08807" lon="0.59295">
        <ele>115</ele>
        <time>2012-05-12T08:39:33Z</time>
      </trkpt>
      <trkpt lat="49.08773" lon="0.59249">
        <ele>116</ele>
        <time>2012-05-12T08:39:44Z</time>
      </trkpt>
      <trkpt lat="49.08747" lon="0.59192">
        <ele>119</ele>
        <time>2012-05-12T08:40:01Z</time>
      </trkpt>
      <trkpt lat="49.08727" lon="0.59131">
        <ele>123</ele>
        <time>2012-05-12T08:40:20Z</time>
      </trkpt>
      <trkpt lat="49.08718" lon="0.59062">
        <ele>125</ele>
        <time>2012-05-12T08:40:38Z</time>
      </trkpt>
      <trkpt lat="49.08695" lon="0.59001">
        <ele>129</ele>
        <time>2012-05-12T08:40:55Z</time>
      </trkpt>
      <trkpt lat="49.08665" lon="0.58949">
        <ele>137</ele>
        <time>2012-05-12T08:41:10Z</time>
      </trkpt>
      <trkpt lat="49.08631" lon="0.58901">
        <ele>136</ele>
        <time>2012-05-12T08:41:25Z</time>
      </trkpt>
      <trkpt lat="49.08594" lon="0.5886">
        <ele>139</ele>
        <time>2012-05-12T08:41:38Z</time>
      </trkpt>
      <trkpt lat="49.08553" lon="0.58831">
        <ele>143</ele>
        <time>2012-05-12T08:41:51Z</time>
      </trkpt>
      <trkpt lat="49.08509" lon="0.588">
        <ele>144</ele>
        <time>2012-05-12T08:42:04Z</time>
      </trkpt>
      <trkpt lat="49.08466" lon="0.58773">
        <ele>146</ele>
        <time>2012-05-12T08:42:17Z</time>
      </trkpt>
      <trkpt lat="49.08422" lon="0.58748">
        <ele>146</ele>
        <time>2012-05-12T08:43:17Z</time>
      </trkpt>
      <trkpt lat="49.08377" lon="0.58721">
        <ele>146</ele>
        <time>2012-05-12T08:43:29Z</time>
      </trkpt>
      <trkpt lat="49.08335" lon="0.58695">
        <ele>146</ele>
        <time>2012-05-12T08:43:39Z</time>
      </trkpt>
      <trkpt lat="49.08287" lon="0.58676">
        <ele>148</ele>
        <time>2012-05-12T08:43:49Z</time>
      </trkpt>
      <trkpt lat="49.08239" lon="0.5868">
        <ele>149</ele>
        <time>2012-05-12T08:44:00Z</time>
      </trkpt>
      <trkpt lat="49.08203" lon="0.58641">
        <ele>147</ele>
        <time>2012-05-12T08:44:11Z</time>
      </trkpt>
      <trkpt lat="49.08182" lon="0.58581">
        <ele>142</ele>
        <time>2012-05-12T08:44:25Z</time>
      </trkpt>
      <trkpt lat="49.08144" lon="0.58543">
        <ele>144</ele>
        <time>2012-05-12T08:44:39Z</time>
      </trkpt>
      <trkpt lat="49.08109" lon="0.58481">
        <ele>140</ele>
        <time>2012-05-12T08:44:51Z</time>
      </trkpt>
      <trkpt lat="49.08071" lon="0.5842">
        <ele>145</ele>
        <time>2012-05-12T08:45:01Z</time>
      </trkpt>
      <trkpt lat="49.08038" lon="0.5835">
        <ele>142</ele>
        <time>2012-05-12T08:45:12Z</time>
      </trkpt>
      <trkpt lat="49.08005" lon="0.58287">
        <ele>137</ele>
        <time>2012-05-12T08:45:20Z</time>
      </trkpt>
      <trkpt lat="49.07971" lon="0.58219">
        <ele>138</ele>
        <time>2012-05-12T08:45:29Z</time>
      </trkpt>
      <trkpt lat="49.07929" lon="0.58129">
        <ele>134</ele>
        <time>2012-05-12T08:45:39Z</time>
      </trkpt>
      <trkpt lat="49.07915" lon="0.58044">
        <ele>137</ele>
        <time>2012-05-12T08:45:51Z</time>
      </trkpt>
      <trkpt lat="49.07904" lon="0.57955">
        <ele>134</ele>
        <time>2012-05-12T08:46:03Z</time>
      </trkpt>
      <trkpt lat="49.07898" lon="0.57863">
        <ele>129</ele>
        <time>2012-05-12T08:46:17Z</time>
      </trkpt>
      <trkpt lat="49.07868" lon="0.57789">
        <ele>125</ele>
        <time>2012-05-12T08:46:27Z</time>
      </trkpt>
      <trkpt lat="49.07864" lon="0.57717">
        <ele>124</ele>
        <time>2012-05-12T08:46:37Z</time>
      </trkpt>
      <trkpt lat="49.07846" lon="0.57645">
        <ele>130</ele>
        <time>2012-05-12T08:46:52Z</time>
      </trkpt>
      <trkpt lat="49.07799" lon="0.57574">
        <ele>134</ele>
        <time>2012-05-12T08:47:15Z</time>
      </trkpt>
      <trkpt lat="49.07752" lon="0.57526">
        <ele>135</ele>
        <time>2012-05-12T08:47:37Z</time>
      </trkpt>
      <trkpt lat="49.07751" lon="0.57478">
        <ele>139</ele>
        <time>2012-05-12T08:47:59Z</time>
      </trkpt>
      <trkpt lat="49.07754" lon="0.57395">
        <ele>145</ele>
        <time>2012-05-12T08:48:23Z</time>
      </trkpt>
      <trkpt lat="49.07759" lon="0.573">
        <ele>149</ele>
        <time>2012-05-12T08:48:50Z</time>
      </trkpt>
      <trkpt lat="49.07727" lon="0.57222">
        <ele>149</ele>
        <time>2012-05-12T08:49:10Z</time>
      </trkpt>
      <trkpt lat="49.07691" lon="0.57146">
        <ele>151</ele>
        <time>2012-05-12T08:49:28Z</time>
      </trkpt>
      <trkpt lat="49.07658" lon="0.57064">
        <ele>151</ele>
        <time>2012-05-12T08:49:44Z</time>
      </trkpt>
      <trkpt lat="49.07629" lon="0.56984">
        <ele>151</ele>
        <time>2012-05-12T08:51:24Z</time>
      </trkpt>
      <trkpt lat="49.07603" lon="0.56898">
        <ele>152</ele>
        <time>2012-05-12T08:51:38Z</time>
      </trkpt>
      <trkpt lat="49.07576" lon="0.56814">
        <ele>151</ele>
        <time>2012-05-12T08:51:49Z</time>
      </trkpt>
      <trkpt lat="49.07549" lon="0.56723">
        <ele>151</ele>
        <time>2012-05-12T08:52:02Z</time>
      </trkpt>
      <trkpt lat="49.07512" lon="0.56655">
        <ele>152</ele>
        <time>2012-05-12T08:52:14Z</time>
      </trkpt>
      <trkpt lat="49.07482" lon="0.56572">
        <ele>153</ele>
        <time>2012-05-12T08:52:29Z</time>
      </trkpt>
      <trkpt lat="49.0745" lon="0.56484">
        <ele>157</ele>
        <time>2012-05-12T08:52:42Z</time>
      </trkpt>
      <trkpt lat="49.07423" lon="0.56416">
        <ele>159</ele>
        <time>2012-05-12T08:52:53Z</time>
      </trkpt>
      <trkpt lat="49.07388" lon="0.56344">
        <ele>157</ele>
        <time>2012-05-12T08:53:05Z</time>
      </trkpt>
      <trkpt lat="49.07361" lon="0.56265">
        <ele>157</ele>
        <time>2012-05-12T08:53:16Z</time>
      </trkpt>
      <trkpt lat="49.07335" lon="0.56186">
        <ele>158</ele>
        <time>2012-05-12T08:53:27Z</time>
      </trkpt>
      <trkpt lat="49.07313" lon="0.56108">
        <ele>154</ele>
        <time>2012-05-12T08:53:39Z</time>
      </trkpt>
      <trkpt lat="49.07275" lon="0.56043">
        <ele>152</ele>
        <time>2012-05-12T08:53:50Z</time>
      </trkpt>
      <trkpt lat="49.07251" lon="0.55974">
        <ele>152</ele>
        <time>2012-05-12T08:53:59Z</time>
      </trkpt>
      <trkpt lat="49.07227" lon="0.5591">
        <ele>150</ele>
        <time>2012-05-12T08:54:08Z</time>
      </trkpt>
      <trkpt lat="49.07203" lon="0.55843">
        <ele>149</ele>
        <time>2012-05-12T08:54:17Z</time>
      </trkpt>
      <trkpt lat="49.07184" lon="0.55778">
        <ele>149</ele>
        <time>2012-05-12T08:54:26Z</time>
      </trkpt>
      <trkpt lat="49.07169" lon="0.55707">
        <ele>150</ele>
        <time>2012-05-12T08:54:37Z</time>
      </trkpt>
      <trkpt lat="49.07154" lon="0.55638">
        <ele>150</ele>
        <time>2012-05-12T08:54:47Z</time>
      </trkpt>
      <trkpt lat="49.0714" lon="0.55568">
        <ele>151</ele>
        <time>2012-05-12T08:54:57Z</time>
      </trkpt>
      <trkpt lat="49.07121" lon="0.55498">
        <ele>150</ele>
        <time>2012-05-12T08:55:08Z</time>
      </trkpt>
      <trkpt lat="49.07098" lon="0.5544">
        <ele>150</ele>
        <time>2012-05-12T08:55:19Z</time>
      </trkpt>
      <trkpt lat="49.07057" lon="0.55476">
        <ele>148</ele>
        <time>2012-05-12T08:55:31Z</time>
      </trkpt>
      <trkpt lat="49.07015" lon="0.5552">
        <ele>145</ele>
        <time>2012-05-12T08:55:41Z</time>
      </trkpt>
      <trkpt lat="49.06966" lon="0.55518">
        <ele>139</ele>
        <time>2012-05-12T08:55:51Z</time>
      </trkpt>
      <trkpt lat="49.06938" lon="0.5555">
        <ele>137</ele>
        <time>2012-05-12T09:11:57Z</time>
      </trkpt>
      <trkpt lat="49.06932" lon="0.5562">
        <ele>138</ele>
        <time>2012-05-12T09:12:08Z</time>
      </trkpt>
      <trkpt lat="49.06944" lon="0.55698">
        <ele>142</ele>
        <time>2012-05-12T09:12:25Z</time>
      </trkpt>
      <trkpt lat="49.06899" lon="0.55689">
        <ele>145</ele>
        <time>2012-05-12T09:12:42Z</time>
      </trkpt>
      <trkpt lat="49.06851" lon="0.55677">
        <ele>146</ele>
        <time>2012-05-12T09:12:57Z</time>
      </trkpt>
      <trkpt lat="49.06807" lon="0.55664">
        <ele>148</ele>
        <time>2012-05-12T09:13:11Z</time>
      </trkpt>
      <trkpt lat="49.06761" lon="0.55648">
        <ele>151</ele>
        <time>2012-05-12T09:13:25Z</time>
      </trkpt>
      <trkpt lat="49.06719" lon="0.55617">
        <ele>155</ele>
        <time>2012-05-12T09:13:38Z</time>
      </trkpt>
      <trkpt lat="49.06676" lon="0.55586">
        <ele>156</ele>
        <time>2012-05-12T09:13:50Z</time>
      </trkpt>
      <trkpt lat="49.06634" lon="0.55551">
        <ele>156</ele>
        <time>2012-05-12T09:14:03Z</time>
      </trkpt>
      <trkpt lat="49.06592" lon="0.55526">
        <ele>156</ele>
        <time>2012-05-12T09:14:15Z</time>
      </trkpt>
      <trkpt lat="49.06553" lon="0.5549">
        <ele>158</ele>
        <time>2012-05-12T09:14:27Z</time>
      </trkpt>
      <trkpt lat="49.06516" lon="0.5545">
        <ele>160</ele>
        <time>2012-05-12T09:14:39Z</time>
      </trkpt>
      <trkpt lat="49.06475" lon="0.55415">
        <ele>162</ele>
        <time>2012-05-12T09:14:51Z</time>
      </trkpt>
      <trkpt lat="49.06433" lon="0.55374">
        <ele>161</ele>
        <time>2012-05-12T09:15:02Z</time>
      </trkpt>
      <trkpt lat="49.06391" lon="0.55337">
        <ele>162</ele>
        <time>2012-05-12T09:15:13Z</time>
      </trkpt>
      <trkpt lat="49.06349" lon="0.55309">
        <ele>163</ele>
        <time>2012-05-12T09:15:23Z</time>
      </trkpt>
      <trkpt lat="49.06309" lon="0.55279">
        <ele>166</ele>
        <time>2012-05-12T09:15:33Z</time>
      </trkpt>
      <trkpt lat="49.06272" lon="0.55236">
        <ele>166</ele>
        <time>2012-05-12T09:15:43Z</time>
      </trkpt>
      <trkpt lat="49.06228" lon="0.55197">
        <ele>168</ele>
        <time>2012-05-12T09:15:54Z</time>
      </trkpt>
      <trkpt lat="49.06182" lon="0.55169">
        <ele>169</ele>
        <time>2012-05-12T09:16:05Z</time>
      </trkpt>
      <trkpt lat="49.06133" lon="0.55166">
        <ele>169</ele>
        <time>2012-05-12T09:16:16Z</time>
      </trkpt>
      <trkpt lat="49.06085" lon="0.5515">
        <ele>169</ele>
        <time>2012-05-12T09:16:26Z</time>
      </trkpt>
      <trkpt lat="49.06036" lon="0.55136">
        <ele>170</ele>
        <time>2012-05-12T09:16:36Z</time>
      </trkpt>
      <trkpt lat="49.05989" lon="0.55114">
        <ele>171</ele>
        <time>2012-05-12T09:16:46Z</time>
      </trkpt>
      <trkpt lat="49.05939" lon="0.55095">
        <ele>170</ele>
        <time>2012-05-12T09:16:56Z</time>
      </trkpt>
      <trkpt lat="49.05894" lon="0.55078">
        <ele>170</ele>
        <time>2012-05-12T09:17:07Z</time>
      </trkpt>
      <trkpt lat="49.05847" lon="0.55069">
        <ele>171</ele>
        <time>2012-05-12T09:18:14Z</time>
      </trkpt>
      <trkpt lat="49.058" lon="0.55058">
        <ele>171</ele>
        <time>2012-05-12T09:18:25Z</time>
      </trkpt>
      <trkpt lat="49.05749" lon="0.55046">
        <ele>171</ele>
        <time>2012-05-12T09:18:37Z</time>
      </trkpt>
      <trkpt lat="49.05684" lon="0.55034">
        <ele>172</ele>
        <time>2012-05-12T09:18:47Z</time>
      </trkpt>
      <trkpt lat="49.05633" lon="0.55012">
        <ele>172</ele>
        <time>2012-05-12T09:18:58Z</time>
      </trkpt>
      <trkpt lat="49.0558" lon="0.54972">
        <ele>169</ele>
        <time>2012-05-12T09:19:13Z</time>
      </trkpt>
      <trkpt lat="49.05524" lon="0.54929">
        <ele>168</ele>
        <time>2012-05-12T09:19:23Z</time>
      </trkpt>
      <trkpt lat="49.05477" lon="0.54895">
        <ele>167</ele>
        <time>2012-05-12T09:19:33Z</time>
      </trkpt>
      <trkpt lat="49.05429" lon="0.54867">
        <ele>168</ele>
        <time>2012-05-12T09:19:45Z</time>
      </trkpt>
      <trkpt lat="49.05377" lon="0.54828">
        <ele>167</ele>
        <time>2012-05-12T09:19:55Z</time>
      </trkpt>
      <trkpt lat="49.05336" lon="0.54779">
        <ele>167</ele>
        <time>2012-05-12T09:20:05Z</time>
      </trkpt>
      <trkpt lat="49.05286" lon="0.54733">
        <ele>165</ele>
        <time>2012-05-12T09:20:13Z</time>
      </trkpt>
      <trkpt lat="49.05241" lon="0.54696">
        <ele>165</ele>
        <time>2012-05-12T09:20:22Z</time>
      </trkpt>
      <trkpt lat="49.05195" lon="0.54667">
        <ele>165</ele>
        <time>2012-05-12T09:20:32Z</time>
      </trkpt>
      <trkpt lat="49.05154" lon="0.54624">
        <ele>165</ele>
        <time>2012-05-12T09:20:41Z</time>
      </trkpt>
      <trkpt lat="49.05117" lon="0.54584">
        <ele>165</ele>
        <time>2012-05-12T09:20:50Z</time>
      </trkpt>
      <trkpt lat="49.05079" lon="0.54538">
        <ele>165</ele>
        <time>2012-05-12T09:21:00Z</time>
      </trkpt>
      <trkpt lat="49.05037" lon="0.54504">
        <ele>165</ele>
        <time>2012-05-12T09:21:10Z</time>
      </trkpt>
      <trkpt lat="49.04994" lon="0.54471">
        <ele>165</ele>
        <time>2012-05-12T09:21:19Z</time>
      </trkpt>
      <trkpt lat="49.04951" lon="0.54443">
        <ele>166</ele>
        <time>2012-05-12T09:21:28Z</time>
      </trkpt>
      <trkpt lat="49.04906" lon="0.54414">
        <ele>168</ele>
        <time>2012-05-12T09:21:37Z</time>
      </trkpt>
      <trkpt lat="49.04872" lon="0.54374">
        <ele>167</ele>
        <time>2012-05-12T09:21:46Z</time>
      </trkpt>
      <trkpt lat="49.04827" lon="0.54352">
        <ele>168</ele>
        <time>2012-05-12T09:21:55Z</time>
      </trkpt>
      <trkpt lat="49.04809" lon="0.54303">
        <ele>167</ele>
        <time>2012-05-12T09:23:02Z</time>
      </trkpt>
      <trkpt lat="49.04803" lon="0.54214">
        <ele>166</ele>
        <time>2012-05-12T09:23:13Z</time>
      </trkpt>
      <trkpt lat="49.04808" lon="0.54133">
        <ele>161</ele>
        <time>2012-05-12T09:23:22Z</time>
      </trkpt>
      <trkpt lat="49.04804" lon="0.54043">
        <ele>156</ele>
        <time>2012-05-12T09:23:32Z</time>
      </trkpt>
      <trkpt lat="49.04787" lon="0.53968">
        <ele>155</ele>
        <time>2012-05-12T09:23:39Z</time>
      </trkpt>
      <trkpt lat="49.0476" lon="0.53914">
        <ele>155</ele>
        <time>2012-05-12T09:23:47Z</time>
      </trkpt>
      <trkpt lat="49.04729" lon="0.5386">
        <ele>157</ele>
        <time>2012-05-12T09:23:57Z</time>
      </trkpt>
      <trkpt lat="49.047" lon="0.53807">
        <ele>156</ele>
        <time>2012-05-12T09:24:07Z</time>
      </trkpt>
      <trkpt lat="49.04679" lon="0.53743">
        <ele>157</ele>
        <time>2012-05-12T09:24:18Z</time>
      </trkpt>
      <trkpt lat="49.04683" lon="0.53675">
        <ele>160</ele>
        <time>2012-05-12T09:24:30Z</time>
      </trkpt>
      <trkpt lat="49.04679" lon="0.53607">
        <ele>163</ele>
        <time>2012-05-12T09:24:44Z</time>
      </trkpt>
      <trkpt lat="49.04654" lon="0.53537">
        <ele>165</ele>
        <time>2012-05-12T09:24:57Z</time>
      </trkpt>
      <trkpt lat="49.04622" lon="0.5348">
        <ele>166</ele>
        <time>2012-05-12T09:25:08Z</time>
      </trkpt>
      <trkpt lat="49.04586" lon="0.53419">
        <ele>166</ele>
        <time>2012-05-12T09:25:22Z</time>
      </trkpt>
      <trkpt lat="49.04557" lon="0.53349">
        <ele>162</ele>
        <time>2012-05-12T09:25:33Z</time>
      </trkpt>
      <trkpt lat="49.04534" lon="0.53284">
        <ele>162</ele>
        <time>2012-05-12T09:25:44Z</time>
      </trkpt>
      <trkpt lat="49.04493" lon="0.53268">
        <ele>159</ele>
        <time>2012-05-12T09:25:56Z</time>
      </trkpt>
      <trkpt lat="49.04458" lon="0.53322">
        <ele>158</ele>
        <time>2012-05-12T09:26:04Z</time>
      </trkpt>
      <trkpt lat="49.04435" lon="0.53381">
        <ele>158</ele>
        <time>2012-05-12T09:26:17Z</time>
      </trkpt>
      <trkpt lat="49.04391" lon="0.53423">
        <ele>163</ele>
        <time>2012-05-12T09:26:48Z</time>
      </trkpt>
      <trkpt lat="49.04349" lon="0.53461">
        <ele>166</ele>
        <time>2012-05-12T09:27:11Z</time>
      </trkpt>
      <trkpt lat="49.04311" lon="0.535">
        <ele>170</ele>
        <time>2012-05-12T09:29:53Z</time>
      </trkpt>
      <trkpt lat="49.04268" lon="0.53519">
        <ele>170</ele>
        <time>2012-05-12T09:30:07Z</time>
      </trkpt>
      <trkpt lat="49.04228" lon="0.53555">
        <ele>171</ele>
        <time>2012-05-12T09:30:20Z</time>
      </trkpt>
      <trkpt lat="49.04188" lon="0.53591">
        <ele>170</ele>
        <time>2012-05-12T09:30:33Z</time>
      </trkpt>
      <trkpt lat="49.04149" lon="0.53623">
        <ele>170</ele>
        <time>2012-05-12T09:31:44Z</time>
      </trkpt>
      <trkpt lat="49.04109" lon="0.53667">
        <ele>170</ele>
        <time>2012-05-12T09:32:11Z</time>
      </trkpt>
      <trkpt lat="49.04069" lon="0.53708">
        <ele>171</ele>
        <time>2012-05-12T09:32:23Z</time>
      </trkpt>
      <trkpt lat="49.04029" lon="0.53741">
        <ele>171</ele>
        <time>2012-05-12T09:32:34Z</time>
      </trkpt>
      <trkpt lat="49.03989" lon="0.53778">
        <ele>173</ele>
        <time>2012-05-12T09:32:44Z</time>
      </trkpt>
      <trkpt lat="49.03941" lon="0.538">
        <ele>174</ele>
        <time>2012-05-12T09:32:54Z</time>
      </trkpt>
      <trkpt lat="49.03898" lon="0.53833">
        <ele>175</ele>
        <time>2012-05-12T09:33:04Z</time>
      </trkpt>
      <trkpt lat="49.0386" lon="0.53871">
        <ele>177</ele>
        <time>2012-05-12T09:33:13Z</time>
      </trkpt>
      <trkpt lat="49.03821" lon="0.53906">
        <ele>178</ele>
        <time>2012-05-12T09:33:22Z</time>
      </trkpt>
      <trkpt lat="49.03776" lon="0.53924">
        <ele>178</ele>
        <time>2012-05-12T09:33:31Z</time>
      </trkpt>
      <trkpt lat="49.03739" lon="0.53964">
        <ele>177</ele>
        <time>2012-05-12T09:33:40Z</time>
      </trkpt>
      <trkpt lat="49.03702" lon="0.54011">
        <ele>176</ele>
        <time>2012-05-12T09:33:49Z</time>
      </trkpt>
      <trkpt lat="49.03665" lon="0.54058">
        <ele>175</ele>
        <time>2012-05-12T09:33:57Z</time>
      </trkpt>
      <trkpt lat="49.03628" lon="0.54102">
        <ele>174</ele>
        <time>2012-05-12T09:34:05Z</time>
      </trkpt>
      <trkpt lat="49.03586" lon="0.54127">
        <ele>174</ele>
        <time>2012-05-12T09:34:14Z</time>
      </trkpt>
      <trkpt lat="49.03546" lon="0.54086">
        <ele>174</ele>
        <time>2012-05-12T09:34:24Z</time>
      </trkpt>
      <trkpt lat="49.03513" lon="0.54034">
        <ele>174</ele>
        <time>2012-05-12T09:34:33Z</time>
      </trkpt>
      <trkpt lat="49.03479" lon="0.5398">
        <ele>174</ele>
        <time>2012-05-12T09:34:42Z</time>
      </trkpt>
      <trkpt lat="49.03448" lon="0.53931">
        <ele>174</ele>
        <time>2012-05-12T09:34:51Z</time>
      </trkpt>
      <trkpt lat="49.03415" lon="0.53879">
        <ele>175</ele>
        <time>2012-05-12T09:35:02Z</time>
      </trkpt>
      <trkpt lat="49.03383" lon="0.53827">
        <ele>177</ele>
        <time>2012-05-12T09:35:13Z</time>
      </trkpt>
      <trkpt lat="49.03348" lon="0.53808">
        <ele>177</ele>
        <time>2012-05-12T09:35:26Z</time>
      </trkpt>
      <trkpt lat="49.03327" lon="0.53872">
        <ele>177</ele>
        <time>2012-05-12T09:35:38Z</time>
      </trkpt>
      <trkpt lat="49.03301" lon="0.53934">
        <ele>175</ele>
        <time>2012-05-12T09:35:50Z</time>
      </trkpt>
      <trkpt lat="49.03265" lon="0.53978">
        <ele>175</ele>
        <time>2012-05-12T09:36:01Z</time>
      </trkpt>
      <trkpt lat="49.03232" lon="0.54026">
        <ele>175</ele>
        <time>2012-05-12T09:36:15Z</time>
      </trkpt>
      <trkpt lat="49.03192" lon="0.54064">
        <ele>175</ele>
        <time>2012-05-12T09:36:25Z</time>
      </trkpt>
      <trkpt lat="49.03163" lon="0.54112">
        <ele>174</ele>
        <time>2012-05-12T09:36:49Z</time>
      </trkpt>
      <trkpt lat="49.03162" lon="0.54177">
        <ele>173</ele>
        <time>2012-05-12T09:37:04Z</time>
      </trkpt>
      <trkpt lat="49.03166" lon="0.54248">
        <ele>173</ele>
        <time>2012-05-12T09:37:13Z</time>
      </trkpt>
      <trkpt lat="49.03169" lon="0.54326">
        <ele>173</ele>
        <time>2012-05-12T09:37:22Z</time>
      </trkpt>
      <trkpt lat="49.03166" lon="0.54396">
        <ele>172</ele>
        <time>2012-05-12T09:37:31Z</time>
      </trkpt>
      <trkpt lat="49.03159" lon="0.54467">
        <ele>172</ele>
        <time>2012-05-12T09:37:42Z</time>
      </trkpt>
      <trkpt lat="49.03154" lon="0.5454">
        <ele>172</ele>
        <time>2012-05-12T09:37:52Z</time>
      </trkpt>
      <trkpt lat="49.03152" lon="0.54613">
        <ele>172</ele>
        <time>2012-05-12T09:38:02Z</time>
      </trkpt>
      <trkpt lat="49.03148" lon="0.54688">
        <ele>173</ele>
        <time>2012-05-12T09:38:12Z</time>
      </trkpt>
      <trkpt lat="49.03137" lon="0.54756">
        <ele>174</ele>
        <time>2012-05-12T09:38:22Z</time>
      </trkpt>
      <trkpt lat="49.03122" lon="0.54825">
        <ele>174</ele>
        <time>2012-05-12T09:38:32Z</time>
      </trkpt>
      <trkpt lat="49.03112" lon="0.54893">
        <ele>174</ele>
        <time>2012-05-12T09:38:42Z</time>
      </trkpt>
      <trkpt lat="49.03106" lon="0.54961">
        <ele>174</ele>
        <time>2012-05-12T09:38:54Z</time>
      </trkpt>
      <trkpt lat="49.03139" lon="0.55008">
        <ele>173</ele>
        <time>2012-05-12T09:39:09Z</time>
      </trkpt>
      <trkpt lat="49.03182" lon="0.55045">
        <ele>173</ele>
        <time>2012-05-12T09:39:20Z</time>
      </trkpt>
      <trkpt lat="49.03223" lon="0.55085">
        <ele>172</ele>
        <time>2012-05-12T09:39:31Z</time>
      </trkpt>
      <trkpt lat="49.0326" lon="0.55125">
        <ele>171</ele>
        <time>2012-05-12T09:39:41Z</time>
      </trkpt>
      <trkpt lat="49.03299" lon="0.55163">
        <ele>172</ele>
        <time>2012-05-12T09:39:53Z</time>
      </trkpt>
      <trkpt lat="49.03338" lon="0.552">
        <ele>171</ele>
        <time>2012-05-12T09:40:06Z</time>
      </trkpt>
      <trkpt lat="49.03379" lon="0.5523">
        <ele>170</ele>
        <time>2012-05-12T09:40:19Z</time>
      </trkpt>
      <trkpt lat="49.03424" lon="0.55259">
        <ele>170</ele>
        <time>2012-05-12T09:40:31Z</time>
      </trkpt>
      <trkpt lat="49.03466" lon="0.55283">
        <ele>171</ele>
        <time>2012-05-12T09:40:44Z</time>
      </trkpt>
      <trkpt lat="49.03509" lon="0.55306">
        <ele>171</ele>
        <time>2012-05-12T09:40:59Z</time>
      </trkpt>
      <trkpt lat="49.03552" lon="0.55333">
        <ele>171</ele>
        <time>2012-05-12T09:41:11Z</time>
      </trkpt>
      <trkpt lat="49.03593" lon="0.5536">
        <ele>171</ele>
        <time>2012-05-12T09:41:25Z</time>
      </trkpt>
      <trkpt lat="49.03635" lon="0.55399">
        <ele>172</ele>
        <time>2012-05-12T09:41:40Z</time>
      </trkpt>
      <trkpt lat="49.03634" lon="0.55456">
        <ele>172</ele>
        <time>2012-05-12T09:41:56Z</time>
      </trkpt>
      <trkpt lat="49.03614" lon="0.55522">
        <ele>172</ele>
        <time>2012-05-12T09:42:10Z</time>
      </trkpt>
      <trkpt lat="49.03594" lon="0.55589">
        <ele>172</ele>
        <time>2012-05-12T09:42:23Z</time>
      </trkpt>
      <trkpt lat="49.03574" lon="0.55652">
        <ele>171</ele>
        <time>2012-05-12T09:42:35Z</time>
      </trkpt>
      <trkpt lat="49.03563" lon="0.55719">
        <ele>171</ele>
        <time>2012-05-12T09:42:47Z</time>
      </trkpt>
      <trkpt lat="49.03554" lon="0.5579">
        <ele>172</ele>
        <time>2012-05-12T09:44:22Z</time>
      </trkpt>
      <trkpt lat="49.03542" lon="0.55858">
        <ele>172</ele>
        <time>2012-05-12T09:44:32Z</time>
      </trkpt>
      <trkpt lat="49.0352" lon="0.55929">
        <ele>172</ele>
        <time>2012-05-12T09:44:41Z</time>
      </trkpt>
      <trkpt lat="49.0349" lon="0.55989">
        <ele>171</ele>
        <time>2012-05-12T09:44:49Z</time>
      </trkpt>
      <trkpt lat="49.03454" lon="0.56044">
        <ele>171</ele>
        <time>2012-05-12T09:44:57Z</time>
      </trkpt>
      <trkpt lat="49.03431" lon="0.56105">
        <ele>171</ele>
        <time>2012-05-12T09:45:04Z</time>
      </trkpt>
      <trkpt lat="49.03419" lon="0.56174">
        <ele>170</ele>
        <time>2012-05-12T09:45:11Z</time>
      </trkpt>
      <trkpt lat="49.03411" lon="0.56243">
        <ele>170</ele>
        <time>2012-05-12T09:45:18Z</time>
      </trkpt>
      <trkpt lat="49.03375" lon="0.56225">
        <ele>171</ele>
        <time>2012-05-12T09:45:29Z</time>
      </trkpt>
      <trkpt lat="49.03333" lon="0.56188">
        <ele>174</ele>
        <time>2012-05-12T09:45:38Z</time>
      </trkpt>
      <trkpt lat="49.03299" lon="0.56135">
        <ele>173</ele>
        <time>2012-05-12T09:45:48Z</time>
      </trkpt>
      <trkpt lat="49.03265" lon="0.56079">
        <ele>173</ele>
        <time>2012-05-12T09:45:58Z</time>
      </trkpt>
      <trkpt lat="49.03233" lon="0.5602">
        <ele>174</ele>
        <time>2012-05-12T09:46:08Z</time>
      </trkpt>
      <trkpt lat="49.03199" lon="0.55975">
        <ele>173</ele>
        <time>2012-05-12T09:46:17Z</time>
      </trkpt>
      <trkpt lat="49.03155" lon="0.55972">
        <ele>174</ele>
        <time>2012-05-12T09:46:26Z</time>
      </trkpt>
      <trkpt lat="49.03115" lon="0.5601">
        <ele>176</ele>
        <time>2012-05-12T09:46:35Z</time>
      </trkpt>
      <trkpt lat="49.03077" lon="0.56053">
        <ele>175</ele>
        <time>2012-05-12T09:46:44Z</time>
      </trkpt>
      <trkpt lat="49.03042" lon="0.56098">
        <ele>176</ele>
        <time>2012-05-12T09:46:54Z</time>
      </trkpt>
      <trkpt lat="49.03017" lon="0.56154">
        <ele>176</ele>
        <time>2012-05-12T09:47:03Z</time>
      </trkpt>
      <trkpt lat="49.02992" lon="0.56212">
        <ele>176</ele>
        <time>2012-05-12T09:47:12Z</time>
      </trkpt>
      <trkpt lat="49.02949" lon="0.56235">
        <ele>175</ele>
        <time>2012-05-12T09:47:21Z</time>
      </trkpt>
      <trkpt lat="49.02912" lon="0.56278">
        <ele>175</ele>
        <time>2012-05-12T09:47:31Z</time>
      </trkpt>
      <trkpt lat="49.02905" lon="0.56355">
        <ele>176</ele>
        <time>2012-05-12T09:47:40Z</time>
      </trkpt>
      <trkpt lat="49.02901" lon="0.56433">
        <ele>176</ele>
        <time>2012-05-12T09:47:48Z</time>
      </trkpt>
      <trkpt lat="49.029" lon="0.56506">
        <ele>174</ele>
        <time>2012-05-12T09:47:55Z</time>
      </trkpt>
      <trkpt lat="49.02894" lon="0.56576">
        <ele>172</ele>
        <time>2012-05-12T09:48:02Z</time>
      </trkpt>
      <trkpt lat="49.02899" lon="0.56644">
        <ele>168</ele>
        <time>2012-05-12T09:48:08Z</time>
      </trkpt>
      <trkpt lat="49.02919" lon="0.56715">
        <ele>159</ele>
        <time>2012-05-12T09:48:14Z</time>
      </trkpt>
      <trkpt lat="49.02959" lon="0.56749">
        <ele>158</ele>
        <time>2012-05-12T09:48:20Z</time>
      </trkpt>
      <trkpt lat="49.03011" lon="0.5674">
        <ele>156</ele>
        <time>2012-05-12T09:48:26Z</time>
      </trkpt>
      <trkpt lat="49.03063" lon="0.56754">
        <ele>147</ele>
        <time>2012-05-12T09:48:32Z</time>
      </trkpt>
      <trkpt lat="49.0311" lon="0.56776">
        <ele>143</ele>
        <time>2012-05-12T09:48:38Z</time>
      </trkpt>
      <trkpt lat="49.03156" lon="0.5679">
        <ele>140</ele>
        <time>2012-05-12T09:48:45Z</time>
      </trkpt>
      <trkpt lat="49.03123" lon="0.56836">
        <ele>131</ele>
        <time>2012-05-12T09:48:53Z</time>
      </trkpt>
      <trkpt lat="49.03083" lon="0.5688">
        <ele>130</ele>
        <time>2012-05-12T09:49:00Z</time>
      </trkpt>
      <trkpt lat="49.03032" lon="0.56891">
        <ele>130</ele>
        <time>2012-05-12T09:49:08Z</time>
      </trkpt>
      <trkpt lat="49.02985" lon="0.56877">
        <ele>131</ele>
        <time>2012-05-12T09:49:17Z</time>
      </trkpt>
      <trkpt lat="49.02938" lon="0.56876">
        <ele>131</ele>
        <time>2012-05-12T09:49:26Z</time>
      </trkpt>
      <trkpt lat="49.02891" lon="0.56868">
        <ele>131</ele>
        <time>2012-05-12T09:49:36Z</time>
      </trkpt>
      <trkpt lat="49.02847" lon="0.56846">
        <ele>132</ele>
        <time>2012-05-12T09:49:46Z</time>
      </trkpt>
      <trkpt lat="49.02805" lon="0.56814">
        <ele>136</ele>
        <time>2012-05-12T09:49:56Z</time>
      </trkpt>
      <trkpt lat="49.02755" lon="0.5677">
        <ele>136</ele>
        <time>2012-05-12T09:50:06Z</time>
      </trkpt>
      <trkpt lat="49.02721" lon="0.56718">
        <ele>137</ele>
        <time>2012-05-12T09:50:15Z</time>
      </trkpt>
      <trkpt lat="49.02681" lon="0.56679">
        <ele>136</ele>
        <time>2012-05-12T09:50:24Z</time>
      </trkpt>
      <trkpt lat="49.02642" lon="0.56641">
        <ele>136</ele>
        <time>2012-05-12T09:50:34Z</time>
      </trkpt>
      <trkpt lat="49.02604" lon="0.56596">
        <ele>136</ele>
        <time>2012-05-12T09:50:44Z</time>
      </trkpt>
      <trkpt lat="49.02559" lon="0.56571">
        <ele>137</ele>
        <time>2012-05-12T09:50:54Z</time>
      </trkpt>
      <trkpt lat="49.02514" lon="0.56558">
        <ele>136</ele>
        <time>2012-05-12T09:51:03Z</time>
      </trkpt>
      <trkpt lat="49.02467" lon="0.56548">
        <ele>133</ele>
        <time>2012-05-12T09:51:13Z</time>
      </trkpt>
      <trkpt lat="49.02433" lon="0.56513">
        <ele>133</ele>
        <time>2012-05-12T09:51:25Z</time>
      </trkpt>
      <trkpt lat="49.02412" lon="0.56448">
        <ele>138</ele>
        <time>2012-05-12T09:51:40Z</time>
      </trkpt>
      <trkpt lat="49.02373" lon="0.56414">
        <ele>144</ele>
        <time>2012-05-12T09:51:55Z</time>
      </trkpt>
      <trkpt lat="49.0233" lon="0.5639">
        <ele>139</ele>
        <time>2012-05-12T09:52:10Z</time>
      </trkpt>
      <trkpt lat="49.02288" lon="0.56364">
        <ele>140</ele>
        <time>2012-05-12T09:52:26Z</time>
      </trkpt>
      <trkpt lat="49.02298" lon="0.56415">
        <ele>138</ele>
        <time>2012-05-12T09:52:43Z</time>
      </trkpt>
      <trkpt lat="49.02275" lon="0.56478">
        <ele>132</ele>
        <time>2012-05-12T09:52:52Z</time>
      </trkpt>
      <trkpt lat="49.02234" lon="0.56469">
        <ele>129</ele>
        <time>2012-05-12T09:53:01Z</time>
      </trkpt>
      <trkpt lat="49.02196" lon="0.56418">
        <ele>129</ele>
        <time>2012-05-12T09:53:10Z</time>
      </trkpt>
      <trkpt lat="49.02165" lon="0.5636">
        <ele>129</ele>
        <time>2012-05-12T09:53:19Z</time>
      </trkpt>
      <trkpt lat="49.02129" lon="0.56325">
        <ele>132</ele>
        <time>2012-05-12T09:54:02Z</time>
      </trkpt>
      <trkpt lat="49.02084" lon="0.56334">
        <ele>129</ele>
        <time>2012-05-12T09:55:02Z</time>
      </trkpt>
      <trkpt lat="49.0204" lon="0.56376">
        <ele>130</ele>
        <time>2012-05-12T09:55:16Z</time>
      </trkpt>
      <trkpt lat="49.02004" lon="0.56423">
        <ele>132</ele>
        <time>2012-05-12T09:55:32Z</time>
      </trkpt>
      <trkpt lat="49.01963" lon="0.5641">
        <ele>138</ele>
        <time>2012-05-12T09:56:51Z</time>
      </trkpt>
      <trkpt lat="49.01935" lon="0.5635">
        <ele>139</ele>
        <time>2012-05-12T09:57:06Z</time>
      </trkpt>
      <trkpt lat="49.01913" lon="0.56287">
        <ele>145</ele>
        <time>2012-05-12T09:57:18Z</time>
      </trkpt>
      <trkpt lat="49.01895" lon="0.56218">
        <ele>141</ele>
        <time>2012-05-12T09:57:29Z</time>
      </trkpt>
      <trkpt lat="49.01874" lon="0.56155">
        <ele>137</ele>
        <time>2012-05-12T09:57:39Z</time>
      </trkpt>
      <trkpt lat="49.01842" lon="0.561">
        <ele>136</ele>
        <time>2012-05-12T09:57:49Z</time>
      </trkpt>
      <trkpt lat="49.01797" lon="0.56111">
        <ele>141</ele>
        <time>2012-05-12T09:57:58Z</time>
      </trkpt>
      <trkpt lat="49.01753" lon="0.56128">
        <ele>143</ele>
        <time>2012-05-12T09:58:07Z</time>
      </trkpt>
      <trkpt lat="49.01709" lon="0.56152">
        <ele>145</ele>
        <time>2012-05-12T09:58:17Z</time>
      </trkpt>
      <trkpt lat="49.01667" lon="0.56198">
        <ele>149</ele>
        <time>2012-05-12T09:58:28Z</time>
      </trkpt>
      <trkpt lat="49.01637" lon="0.56256">
        <ele>149</ele>
        <time>2012-05-12T09:58:38Z</time>
      </trkpt>
      <trkpt lat="49.01597" lon="0.56299">
        <ele>150</ele>
        <time>2012-05-12T09:58:49Z</time>
      </trkpt>
      <trkpt lat="49.01551" lon="0.56297">
        <ele>149</ele>
        <time>2012-05-12T09:59:03Z</time>
      </trkpt>
      <trkpt lat="49.01504" lon="0.56275">
        <ele>149</ele>
        <time>2012-05-12T09:59:20Z</time>
      </trkpt>
      <trkpt lat="49.01452" lon="0.56253">
        <ele>152</ele>
        <time>2012-05-12T09:59:36Z</time>
      </trkpt>
      <trkpt lat="49.01405" lon="0.56225">
        <ele>155</ele>
        <time>2012-05-12T09:59:49Z</time>
      </trkpt>
      <trkpt lat="49.01361" lon="0.56183">
        <ele>157</ele>
        <time>2012-05-12T10:00:02Z</time>
      </trkpt>
      <trkpt lat="49.01332" lon="0.56119">
        <ele>160</ele>
        <time>2012-05-12T10:00:16Z</time>
      </trkpt>
      <trkpt lat="49.01294" lon="0.56058">
        <ele>161</ele>
        <time>2012-05-12T10:00:32Z</time>
      </trkpt>
      <trkpt lat="49.01251" lon="0.56002">
        <ele>161</ele>
        <time>2012-05-12T10:00:46Z</time>
      </trkpt>
      <trkpt lat="49.01209" lon="0.55971">
        <ele>164</ele>
        <time>2012-05-12T10:01:15Z</time>
      </trkpt>
      <trkpt lat="49.01163" lon="0.55969">
        <ele>163</ele>
        <time>2012-05-12T10:01:41Z</time>
      </trkpt>
      <trkpt lat="49.01117" lon="0.55979">
        <ele>163</ele>
        <time>2012-05-12T10:01:55Z</time>
      </trkpt>
      <trkpt lat="49.01066" lon="0.55997">
        <ele>163</ele>
        <time>2012-05-12T10:02:10Z</time>
      </trkpt>
      <trkpt lat="49.01016" lon="0.56017">
        <ele>164</ele>
        <time>2012-05-12T10:02:25Z</time>
      </trkpt>
      <trkpt lat="49.00969" lon="0.56035">
        <ele>166</ele>
        <time>2012-05-12T10:02:40Z</time>
      </trkpt>
      <trkpt lat="49.00923" lon="0.56051">
        <ele>167</ele>
        <time>2012-05-12T10:02:54Z</time>
      </trkpt>
      <trkpt lat="49.00876" lon="0.56043">
        <ele>168</ele>
        <time>2012-05-12T10:03:09Z</time>
      </trkpt>
      <trkpt lat="49.00834" lon="0.56007">
        <ele>167</ele>
        <time>2012-05-12T10:03:27Z</time>
      </trkpt>
      <trkpt lat="49.00804" lon="0.55953">
        <ele>168</ele>
        <time>2012-05-12T10:03:40Z</time>
      </trkpt>
      <trkpt lat="49.00774" lon="0.55896">
        <ele>170</ele>
        <time>2012-05-12T10:03:55Z</time>
      </trkpt>
      <trkpt lat="49.00739" lon="0.55852">
        <ele>170</ele>
        <time>2012-05-12T10:04:09Z</time>
      </trkpt>
      <trkpt lat="49.00695" lon="0.55826">
        <ele>172</ele>
        <time>2012-05-12T10:04:23Z</time>
      </trkpt>
      <trkpt lat="49.00657" lon="0.55828">
        <ele>171</ele>
        <time>2012-05-12T10:16:17Z</time>
      </trkpt>
      <trkpt lat="49.00648" lon="0.55898">
        <ele>172</ele>
        <time>2012-05-12T10:16:37Z</time>
      </trkpt>
      <trkpt lat="49.00653" lon="0.55967">
        <ele>175</ele>
        <time>2012-05-12T10:16:53Z</time>
      </trkpt>
      <trkpt lat="49.00654" lon="0.55956">
        <ele>174</ele>
        <time>2012-05-12T10:17:17Z</time>
      </trkpt>
      <trkpt lat="49.00634" lon="0.56006">
        <ele>177</ele>
        <time>2012-05-12T10:17:34Z</time>
      </trkpt>
      <trkpt lat="49.00623" lon="0.56077">
        <ele>178</ele>
        <time>2012-05-12T10:17:49Z</time>
      </trkpt>
      <trkpt lat="49.00612" lon="0.5615">
        <ele>180</ele>
        <time>2012-05-12T10:18:04Z</time>
      </trkpt>
      <trkpt lat="49.00638" lon="0.56212">
        <ele>182</ele>
        <time>2012-05-12T10:19:01Z</time>
      </trkpt>
      <trkpt lat="49.00684" lon="0.56256">
        <ele>182</ele>
        <time>2012-05-12T10:19:29Z</time>
      </trkpt>
      <trkpt lat="49.00721" lon="0.56298">
        <ele>182</ele>
        <time>2012-05-12T10:19:43Z</time>
      </trkpt>
      <trkpt lat="49.0075" lon="0.56371">
        <ele>181</ele>
        <time>2012-05-12T10:19:59Z</time>
      </trkpt>
      <trkpt lat="49.00776" lon="0.56438">
        <ele>179</ele>
        <time>2012-05-12T10:20:13Z</time>
      </trkpt>
      <trkpt lat="49.00804" lon="0.56508">
        <ele>179</ele>
        <time>2012-05-12T10:20:30Z</time>
      </trkpt>
      <trkpt lat="49.00828" lon="0.56576">
        <ele>181</ele>
        <time>2012-05-12T10:20:45Z</time>
      </trkpt>
      <trkpt lat="49.00851" lon="0.56641">
        <ele>182</ele>
        <time>2012-05-12T10:21:01Z</time>
      </trkpt>
      <trkpt lat="49.00876" lon="0.56721">
        <ele>184</ele>
        <time>2012-05-12T10:21:18Z</time>
      </trkpt>
      <trkpt lat="49.0091" lon="0.56798">
        <ele>186</ele>
        <time>2012-05-12T10:21:32Z</time>
      </trkpt>
      <trkpt lat="49.00942" lon="0.56878">
        <ele>188</ele>
        <time>2012-05-12T10:21:47Z</time>
      </trkpt>
      <trkpt lat="49.00971" lon="0.5696">
        <ele>189</ele>
        <time>2012-05-12T10:22:09Z</time>
      </trkpt>
      <trkpt lat="49.0102" lon="0.57015">
        <ele>190</ele>
        <time>2012-05-12T10:22:31Z</time>
      </trkpt>
      <trkpt lat="49.01049" lon="0.57089">
        <ele>189</ele>
        <time>2012-05-12T10:22:50Z</time>
      </trkpt>
      <trkpt lat="49.01073" lon="0.57173">
        <ele>191</ele>
        <time>2012-05-12T10:23:07Z</time>
      </trkpt>
      <trkpt lat="49.01082" lon="0.57249">
        <ele>192</ele>
        <time>2012-05-12T10:23:36Z</time>
      </trkpt>
      <trkpt lat="49.01088" lon="0.57326">
        <ele>191</ele>
        <time>2012-05-12T10:24:02Z</time>
      </trkpt>
      <trkpt lat="49.01081" lon="0.57394">
        <ele>191</ele>
        <time>2012-05-12T10:24:33Z</time>
      </trkpt>
      <trkpt lat="49.01055" lon="0.57466">
        <ele>191</ele>
        <time>2012-05-12T10:24:50Z</time>
      </trkpt>
      <trkpt lat="49.01035" lon="0.57537">
        <ele>191</ele>
        <time>2012-05-12T10:25:05Z</time>
      </trkpt>
      <trkpt lat="49.01015" lon="0.57604">
        <ele>192</ele>
        <time>2012-05-12T10:25:58Z</time>
      </trkpt>
      <trkpt lat="49.00989" lon="0.57672">
        <ele>192</ele>
        <time>2012-05-12T10:26:14Z</time>
      </trkpt>
      <trkpt lat="49.00967" lon="0.57751">
        <ele>194</ele>
        <time>2012-05-12T10:26:29Z</time>
      </trkpt>
      <trkpt lat="49.00952" lon="0.57825">
        <ele>193</ele>
        <time>2012-05-12T10:26:48Z</time>
      </trkpt>
      <trkpt lat="49.00945" lon="0.57897">
        <ele>193</ele>
        <time>2012-05-12T10:27:01Z</time>
      </trkpt>
      <trkpt lat="49.00932" lon="0.57968">
        <ele>193</ele>
        <time>2012-05-12T10:27:29Z</time>
      </trkpt>
      <trkpt lat="49.00917" lon="0.58038">
        <ele>192</ele>
        <time>2012-05-12T10:27:48Z</time>
      </trkpt>
      <trkpt lat="49.00904" lon="0.5811">
        <ele>189</ele>
        <time>2012-05-12T10:28:05Z</time>
      </trkpt>
      <trkpt lat="49.00887" lon="0.58178">
        <ele>186</ele>
        <time>2012-05-12T10:28:21Z</time>
      </trkpt>
      <trkpt lat="49.00873" lon="0.58244">
        <ele>186</ele>
        <time>2012-05-12T10:28:34Z</time>
      </trkpt>
      <trkpt lat="49.00874" lon="0.58322">
        <ele>183</ele>
        <time>2012-05-12T10:28:47Z</time>
      </trkpt>
      <trkpt lat="49.0086" lon="0.58397">
        <ele>183</ele>
        <time>2012-05-12T10:29:01Z</time>
      </trkpt>
      <trkpt lat="49.00863" lon="0.5847">
        <ele>184</ele>
        <time>2012-05-12T10:29:29Z</time>
      </trkpt>
      <trkpt lat="49.00856" lon="0.58544">
        <ele>184</ele>
        <time>2012-05-12T10:29:43Z</time>
      </trkpt>
      <trkpt lat="49.00852" lon="0.58615">
        <ele>184</ele>
        <time>2012-05-12T10:29:54Z</time>
      </trkpt>
      <trkpt lat="49.00844" lon="0.58689">
        <ele>183</ele>
        <time>2012-05-12T10:30:06Z</time>
      </trkpt>
      <trkpt lat="49.00839" lon="0.58762">
        <ele>183</ele>
        <time>2012-05-12T10:30:30Z</time>
      </trkpt>
      <trkpt lat="49.00821" lon="0.58828">
        <ele>184</ele>
        <time>2012-05-12T10:33:05Z</time>
      </trkpt>
      <trkpt lat="49.00805" lon="0.58894">
        <ele>184</ele>
        <time>2012-05-12T10:33:18Z</time>
      </trkpt>
      <trkpt lat="49.00776" lon="0.58948">
        <ele>185</ele>
        <time>2012-05-12T10:33:30Z</time>
      </trkpt>
      <trkpt lat="49.00749" lon="0.59006">
        <ele>186</ele>
        <time>2012-05-12T10:33:42Z</time>
      </trkpt>
      <trkpt lat="49.00703" lon="0.59061">
        <ele>184</ele>
        <time>2012-05-12T10:34:03Z</time>
      </trkpt>
      <trkpt lat="49.00656" lon="0.5904">
        <ele>185</ele>
        <time>2012-05-12T10:34:25Z</time>
      </trkpt>
      <trkpt lat="49.00612" lon="0.59048">
        <ele>186</ele>
        <time>2012-05-12T10:34:44Z</time>
      </trkpt>
      <trkpt lat="49.00568" lon="0.5908">
        <ele>187</ele>
        <time>2012-05-12T10:35:01Z</time>
      </trkpt>
      <trkpt lat="49.00517" lon="0.59121">
        <ele>188</ele>
        <time>2012-05-12T10:35:24Z</time>
      </trkpt>
      <trkpt lat="49.00473" lon="0.59177">
        <ele>190</ele>
        <time>2012-05-12T10:35:57Z</time>
      </trkpt>
      <trkpt lat="49.00445" lon="0.59247">
        <ele>191</ele>
        <time>2012-05-12T10:36:21Z</time>
      </trkpt>
      <trkpt lat="49.00414" lon="0.59323">
        <ele>192</ele>
        <time>2012-05-12T10:36:38Z</time>
      </trkpt>
      <trkpt lat="49.00372" lon="0.59407">
        <ele>190</ele>
        <time>2012-05-12T10:37:11Z</time>
      </trkpt>
      <trkpt lat="49.00333" lon="0.59452">
        <ele>189</ele>
        <time>2012-05-12T10:37:28Z</time>
      </trkpt>
      <trkpt lat="49.00293" lon="0.59497">
        <ele>189</ele>
        <time>2012-05-12T10:37:48Z</time>
      </trkpt>
      <trkpt lat="49.00259" lon="0.5955">
        <ele>185</ele>
        <time>2012-05-12T10:38:05Z</time>
      </trkpt>
      <trkpt lat="49.00302" lon="0.59577">
        <ele>183</ele>
        <time>2012-05-12T10:39:24Z</time>
      </trkpt>
      <trkpt lat="49.00347" lon="0.59601">
        <ele>181</ele>
        <time>2012-05-12T10:39:36Z</time>
      </trkpt>
      <trkpt lat="49.00392" lon="0.59614">
        <ele>181</ele>
        <time>2012-05-12T10:39:48Z</time>
      </trkpt>
      <trkpt lat="49.00411" lon="0.59668">
        <ele>180</ele>
        <time>2012-05-12T10:40:01Z</time>
      </trkpt>
      <trkpt lat="49.0042" lon="0.59739">
        <ele>179</ele>
        <time>2012-05-12T10:40:14Z</time>
      </trkpt>
      <trkpt lat="49.00443" lon="0.59801">
        <ele>179</ele>
        <time>2012-05-12T10:40:56Z</time>
      </trkpt>
      <trkpt lat="49.00445" lon="0.59843">
        <ele>178</ele>
        <time>2012-05-12T10:41:30Z</time>
      </trkpt>
      <trkpt lat="49.00406" lon="0.59877">
        <ele>178</ele>
        <time>2012-05-12T10:42:11Z</time>
      </trkpt>
      <trkpt lat="49.00364" lon="0.5991">
        <ele>179</ele>
        <time>2012-05-12T10:42:37Z</time>
      </trkpt>
      <trkpt lat="49.0033" lon="0.59952">
        <ele>183</ele>
        <time>2012-05-12T10:43:03Z</time>
      </trkpt>
      <trkpt lat="49.00298" lon="0.6">
        <ele>184</ele>
        <time>2012-05-12T10:43:22Z</time>
      </trkpt>
      <trkpt lat="49.00271" lon="0.6005">
        <ele>186</ele>
        <time>2012-05-12T10:43:37Z</time>
      </trkpt>
      <trkpt lat="49.00294" lon="0.60096">
        <ele>186</ele>
        <time>2012-05-12T10:44:25Z</time>
      </trkpt>
      <trkpt lat="49.00263" lon="0.60138">
        <ele>188</ele>
        <time>2012-05-12T10:45:03Z</time>
      </trkpt>
      <trkpt lat="49.0023" lon="0.60193">
        <ele>191</ele>
        <time>2012-05-12T10:45:44Z</time>
      </trkpt>
      <trkpt lat="49.00194" lon="0.60247">
        <ele>191</ele>
        <time>2012-05-12T10:46:27Z</time>
      </trkpt>
      <trkpt lat="49.00164" lon="0.60315">
        <ele>191</ele>
        <time>2012-05-12T10:46:56Z</time>
      </trkpt>
      <trkpt lat="49.00133" lon="0.6039">
        <ele>191</ele>
        <time>2012-05-12T10:47:54Z</time>
      </trkpt>
      <trkpt lat="49.00092" lon="0.60467">
        <ele>191</ele>
        <time>2012-05-12T10:48:28Z</time>
      </trkpt>
      <trkpt lat="49.00058" lon="0.60547">
        <ele>189</ele>
        <time>2012-05-12T10:48:59Z</time>
      </trkpt>
      <trkpt lat="49.00031" lon="0.60611">
        <ele>185</ele>
        <time>2012-05-12T10:52:36Z</time>
      </trkpt>
      <trkpt lat="48.9999" lon="0.60663">
        <ele>181</ele>
        <time>2012-05-12T10:53:15Z</time>
      </trkpt>
      <trkpt lat="48.99953" lon="0.60703">
        <ele>180</ele>
        <time>2012-05-12T10:53:37Z</time>
      </trkpt>
      <trkpt lat="48.99916" lon="0.60746">
        <ele>181</ele>
        <time>2012-05-12T10:53:53Z</time>
      </trkpt>
      <trkpt lat="48.99881" lon="0.60791">
        <ele>180</ele>
        <time>2012-05-12T10:54:08Z</time>
      </trkpt>
      <trkpt lat="48.99845" lon="0.60839">
        <ele>180</ele>
        <time>2012-05-12T10:54:21Z</time>
      </trkpt>
      <trkpt lat="48.99811" lon="0.60889">
        <ele>180</ele>
        <time>2012-05-12T10:54:33Z</time>
      </trkpt>
      <trkpt lat="48.99777" lon="0.60937">
        <ele>180</ele>
        <time>2012-05-12T10:54:45Z</time>
      </trkpt>
      <trkpt lat="48.99745" lon="0.60989">
        <ele>181</ele>
        <time>2012-05-12T10:54:58Z</time>
      </trkpt>
      <trkpt lat="48.99712" lon="0.6104">
        <ele>181</ele>
        <time>2012-05-12T10:55:13Z</time>
      </trkpt>
      <trkpt lat="48.99676" lon="0.6109">
        <ele>181</ele>
        <time>2012-05-12T10:55:27Z</time>
      </trkpt>
      <trkpt lat="48.99634" lon="0.61131">
        <ele>180</ele>
        <time>2012-05-12T10:55:42Z</time>
      </trkpt>
      <trkpt lat="48.99605" lon="0.61191">
        <ele>177</ele>
        <time>2012-05-12T10:55:51Z</time>
      </trkpt>
      <trkpt lat="48.99582" lon="0.61252">
        <ele>176</ele>
        <time>2012-05-12T10:56:18Z</time>
      </trkpt>
      <trkpt lat="48.99547" lon="0.61345">
        <ele>181</ele>
        <time>2012-05-12T10:56:37Z</time>
      </trkpt>
      <trkpt lat="48.99523" lon="0.61438">
        <ele>184</ele>
        <time>2012-05-12T10:56:59Z</time>
      </trkpt>
      <trkpt lat="48.99501" lon="0.61521">
        <ele>182</ele>
        <time>2012-05-12T10:57:19Z</time>
      </trkpt>
      <trkpt lat="48.99469" lon="0.61573">
        <ele>182</ele>
        <time>2012-05-12T10:57:35Z</time>
      </trkpt>
      <trkpt lat="48.99441" lon="0.61633">
        <ele>182</ele>
        <time>2012-05-12T10:57:48Z</time>
      </trkpt>
      <trkpt lat="48.99421" lon="0.617">
        <ele>182</ele>
        <time>2012-05-12T10:58:00Z</time>
      </trkpt>
      <trkpt lat="48.99392" lon="0.6174">
        <ele>183</ele>
        <time>2012-05-12T10:58:14Z</time>
      </trkpt>
      <trkpt lat="48.99346" lon="0.61738">
        <ele>184</ele>
        <time>2012-05-12T10:58:26Z</time>
      </trkpt>
      <trkpt lat="48.99299" lon="0.61735">
        <ele>184</ele>
        <time>2012-05-12T10:58:37Z</time>
      </trkpt>
      <trkpt lat="48.99254" lon="0.61732">
        <ele>184</ele>
        <time>2012-05-12T10:58:48Z</time>
      </trkpt>
      <trkpt lat="48.99233" lon="0.61765">
        <ele>184</ele>
        <time>2012-05-12T11:00:10Z</time>
      </trkpt>
      <trkpt lat="48.99221" lon="0.61838">
        <ele>184</ele>
        <time>2012-05-12T11:00:20Z</time>
      </trkpt>
      <trkpt lat="48.99199" lon="0.61902">
        <ele>184</ele>
        <time>2012-05-12T11:00:30Z</time>
      </trkpt>
      <trkpt lat="48.99169" lon="0.61957">
        <ele>184</ele>
        <time>2012-05-12T11:00:39Z</time>
      </trkpt>
      <trkpt lat="48.99138" lon="0.62008">
        <ele>185</ele>
        <time>2012-05-12T11:00:48Z</time>
      </trkpt>
      <trkpt lat="48.99106" lon="0.62065">
        <ele>184</ele>
        <time>2012-05-12T11:00:58Z</time>
      </trkpt>
      <trkpt lat="48.99074" lon="0.62119">
        <ele>185</ele>
        <time>2012-05-12T11:01:07Z</time>
      </trkpt>
      <trkpt lat="48.99046" lon="0.62182">
        <ele>185</ele>
        <time>2012-05-12T11:01:16Z</time>
      </trkpt>
      <trkpt lat="48.9902" lon="0.62243">
        <ele>184</ele>
        <time>2012-05-12T11:01:25Z</time>
      </trkpt>
      <trkpt lat="48.98997" lon="0.623">
        <ele>184</ele>
        <time>2012-05-12T11:03:12Z</time>
      </trkpt>
      <trkpt lat="48.98973" lon="0.6236">
        <ele>183</ele>
        <time>2012-05-12T11:03:24Z</time>
      </trkpt>
      <trkpt lat="48.98948" lon="0.62421">
        <ele>182</ele>
        <time>2012-05-12T11:03:34Z</time>
      </trkpt>
      <trkpt lat="48.98925" lon="0.62481">
        <ele>181</ele>
        <time>2012-05-12T11:03:43Z</time>
      </trkpt>
      <trkpt lat="48.98959" lon="0.62511">
        <ele>179</ele>
        <time>2012-05-12T11:03:57Z</time>
      </trkpt>
      <trkpt lat="48.99003" lon="0.62537">
        <ele>181</ele>
        <time>2012-05-12T11:04:08Z</time>
      </trkpt>
      <trkpt lat="48.99049" lon="0.62562">
        <ele>181</ele>
        <time>2012-05-12T11:04:20Z</time>
      </trkpt>
      <trkpt lat="48.99091" lon="0.62591">
        <ele>181</ele>
        <time>2012-05-12T11:04:36Z</time>
      </trkpt>
      <trkpt lat="48.99133" lon="0.62614">
        <ele>181</ele>
        <time>2012-05-12T11:04:56Z</time>
      </trkpt>
      <trkpt lat="48.99137" lon="0.62663">
        <ele>181</ele>
        <time>2012-05-12T11:05:12Z</time>
      </trkpt>
      <trkpt lat="48.99109" lon="0.62726">
        <ele>179</ele>
        <time>2012-05-12T11:05:23Z</time>
      </trkpt>
      <trkpt lat="48.99084" lon="0.62788">
        <ele>176</ele>
        <time>2012-05-12T11:05:31Z</time>
      </trkpt>
      <trkpt lat="48.9907" lon="0.62849">
        <ele>169</ele>
        <time>2012-05-12T11:05:40Z</time>
      </trkpt>
      <trkpt lat="48.99106" lon="0.62894">
        <ele>171</ele>
        <time>2012-05-12T11:05:50Z</time>
      </trkpt>
      <trkpt lat="48.99128" lon="0.62949">
        <ele>170</ele>
        <time>2012-05-12T11:06:00Z</time>
      </trkpt>
      <trkpt lat="48.99136" lon="0.6302">
        <ele>168</ele>
        <time>2012-05-12T11:06:09Z</time>
      </trkpt>
      <trkpt lat="48.99151" lon="0.63087">
        <ele>166</ele>
        <time>2012-05-12T11:06:17Z</time>
      </trkpt>
      <trkpt lat="48.99151" lon="0.6316">
        <ele>164</ele>
        <time>2012-05-12T11:06:25Z</time>
      </trkpt>
      <trkpt lat="48.99177" lon="0.63219">
        <ele>163</ele>
        <time>2012-05-12T11:06:34Z</time>
      </trkpt>
      <trkpt lat="48.99234" lon="0.63256">
        <ele>160</ele>
        <time>2012-05-12T11:06:42Z</time>
      </trkpt>
      <trkpt lat="48.99279" lon="0.63281">
        <ele>159</ele>
        <time>2012-05-12T11:06:49Z</time>
      </trkpt>
      <trkpt lat="48.99314" lon="0.6333">
        <ele>157</ele>
        <time>2012-05-12T11:06:57Z</time>
      </trkpt>
      <trkpt lat="48.99337" lon="0.63399">
        <ele>155</ele>
        <time>2012-05-12T11:07:06Z</time>
      </trkpt>
      <trkpt lat="48.99359" lon="0.63461">
        <ele>158</ele>
        <time>2012-05-12T11:07:17Z</time>
      </trkpt>
      <trkpt lat="48.9938" lon="0.63522">
        <ele>164</ele>
        <time>2012-05-12T11:07:32Z</time>
      </trkpt>
      <trkpt lat="48.99393" lon="0.63591">
        <ele>168</ele>
        <time>2012-05-12T11:07:52Z</time>
      </trkpt>
      <trkpt lat="48.99397" lon="0.63661">
        <ele>169</ele>
        <time>2012-05-12T11:08:13Z</time>
      </trkpt>
      <trkpt lat="48.99384" lon="0.63733">
        <ele>171</ele>
        <time>2012-05-12T11:08:35Z</time>
      </trkpt>
      <trkpt lat="48.99399" lon="0.63803">
        <ele>174</ele>
        <time>2012-05-12T11:08:54Z</time>
      </trkpt>
      <trkpt lat="48.99414" lon="0.63893">
        <ele>177</ele>
        <time>2012-05-12T11:09:11Z</time>
      </trkpt>
      <trkpt lat="48.99439" lon="0.63961">
        <ele>177</ele>
        <time>2012-05-12T11:09:23Z</time>
      </trkpt>
      <trkpt lat="48.99459" lon="0.64021">
        <ele>176</ele>
        <time>2012-05-12T11:12:34Z</time>
      </trkpt>
      <trkpt lat="48.99496" lon="0.64069">
        <ele>176</ele>
        <time>2012-05-12T11:12:49Z</time>
      </trkpt>
      <trkpt lat="48.9953" lon="0.64121">
        <ele>176</ele>
        <time>2012-05-12T11:13:01Z</time>
      </trkpt>
      <trkpt lat="48.99563" lon="0.6417">
        <ele>177</ele>
        <time>2012-05-12T11:13:12Z</time>
      </trkpt>
      <trkpt lat="48.99606" lon="0.64206">
        <ele>175</ele>
        <time>2012-05-12T11:13:23Z</time>
      </trkpt>
      <trkpt lat="48.99654" lon="0.64218">
        <ele>174</ele>
        <time>2012-05-12T11:13:32Z</time>
      </trkpt>
      <trkpt lat="48.99705" lon="0.6423">
        <ele>173</ele>
        <time>2012-05-12T11:13:41Z</time>
      </trkpt>
      <trkpt lat="48.99756" lon="0.64247">
        <ele>171</ele>
        <time>2012-05-12T11:13:49Z</time>
      </trkpt>
      <trkpt lat="48.99804" lon="0.64262">
        <ele>167</ele>
        <time>2012-05-12T11:13:57Z</time>
      </trkpt>
      <trkpt lat="48.99852" lon="0.64313">
        <ele>161</ele>
        <time>2012-05-12T11:14:04Z</time>
      </trkpt>
      <trkpt lat="48.99892" lon="0.64368">
        <ele>159</ele>
        <time>2012-05-12T11:14:11Z</time>
      </trkpt>
      <trkpt lat="48.9993" lon="0.64411">
        <ele>155</ele>
        <time>2012-05-12T11:14:17Z</time>
      </trkpt>
      <trkpt lat="48.99971" lon="0.64452">
        <ele>154</ele>
        <time>2012-05-12T11:14:23Z</time>
      </trkpt>
      <trkpt lat="49.00007" lon="0.64506">
        <ele>152</ele>
        <time>2012-05-12T11:14:30Z</time>
      </trkpt>
      <trkpt lat="49.0004" lon="0.64561">
        <ele>152</ele>
        <time>2012-05-12T11:14:37Z</time>
      </trkpt>
      <trkpt lat="49.00072" lon="0.64612">
        <ele>152</ele>
        <time>2012-05-12T11:14:44Z</time>
      </trkpt>
      <trkpt lat="49.00099" lon="0.64563">
        <ele>149</ele>
        <time>2012-05-12T11:14:52Z</time>
      </trkpt>
      <trkpt lat="49.00112" lon="0.64492">
        <ele>151</ele>
        <time>2012-05-12T11:14:59Z</time>
      </trkpt>
      <trkpt lat="49.00146" lon="0.64466">
        <ele>153</ele>
        <time>2012-05-12T11:15:07Z</time>
      </trkpt>
      <trkpt lat="49.00187" lon="0.64489">
        <ele>156</ele>
        <time>2012-05-12T11:15:18Z</time>
      </trkpt>
      <trkpt lat="49.00224" lon="0.64525">
        <ele>156</ele>
        <time>2012-05-12T11:15:40Z</time>
      </trkpt>
      <trkpt lat="49.0026" lon="0.64571">
        <ele>161</ele>
        <time>2012-05-12T11:16:04Z</time>
      </trkpt>
      <trkpt lat="49.003" lon="0.64611">
        <ele>162</ele>
        <time>2012-05-12T11:16:24Z</time>
      </trkpt>
      <trkpt lat="49.00331" lon="0.64666">
        <ele>165</ele>
        <time>2012-05-12T11:16:40Z</time>
      </trkpt>
      <trkpt lat="49.00369" lon="0.64711">
        <ele>166</ele>
        <time>2012-05-12T11:16:56Z</time>
      </trkpt>
      <trkpt lat="49.00396" lon="0.64766">
        <ele>166</ele>
        <time>2012-05-12T11:18:48Z</time>
      </trkpt>
      <trkpt lat="49.00432" lon="0.64816">
        <ele>167</ele>
        <time>2012-05-12T11:19:03Z</time>
      </trkpt>
      <trkpt lat="49.00464" lon="0.64864">
        <ele>167</ele>
        <time>2012-05-12T11:19:15Z</time>
      </trkpt>
      <trkpt lat="49.00502" lon="0.64901">
        <ele>167</ele>
        <time>2012-05-12T11:19:27Z</time>
      </trkpt>
      <trkpt lat="49.00546" lon="0.64934">
        <ele>167</ele>
        <time>2012-05-12T11:19:41Z</time>
      </trkpt>
      <trkpt lat="49.00543" lon="0.65004">
        <ele>166</ele>
        <time>2012-05-12T11:19:53Z</time>
      </trkpt>
      <trkpt lat="49.00513" lon="0.65057">
        <ele>165</ele>
        <time>2012-05-12T11:20:03Z</time>
      </trkpt>
      <trkpt lat="49.00478" lon="0.6511">
        <ele>163</ele>
        <time>2012-05-12T11:20:13Z</time>
      </trkpt>
      <trkpt lat="49.00441" lon="0.65157">
        <ele>162</ele>
        <time>2012-05-12T11:20:21Z</time>
      </trkpt>
      <trkpt lat="49.00395" lon="0.65198">
        <ele>156</ele>
        <time>2012-05-12T11:20:28Z</time>
      </trkpt>
      <trkpt lat="49.00356" lon="0.65244">
        <ele>153</ele>
        <time>2012-05-12T11:20:34Z</time>
      </trkpt>
      <trkpt lat="49.00324" lon="0.65307">
        <ele>146</ele>
        <time>2012-05-12T11:20:40Z</time>
      </trkpt>
      <trkpt lat="49.0028" lon="0.6535">
        <ele>145</ele>
        <time>2012-05-12T11:20:45Z</time>
      </trkpt>
      <trkpt lat="49.00246" lon="0.65401">
        <ele>147</ele>
        <time>2012-05-12T11:20:50Z</time>
      </trkpt>
      <trkpt lat="49.00254" lon="0.65469">
        <ele>146</ele>
        <time>2012-05-12T11:20:57Z</time>
      </trkpt>
      <trkpt lat="49.00277" lon="0.65536">
        <ele>148</ele>
        <time>2012-05-12T11:21:06Z</time>
      </trkpt>
      <trkpt lat="49.00299" lon="0.65601">
        <ele>148</ele>
        <time>2012-05-12T11:21:14Z</time>
      </trkpt>
      <trkpt lat="49.0032" lon="0.65667">
        <ele>147</ele>
        <time>2012-05-12T11:21:22Z</time>
      </trkpt>
      <trkpt lat="49.00337" lon="0.65735">
        <ele>147</ele>
        <time>2012-05-12T11:21:29Z</time>
      </trkpt>
      <trkpt lat="49.00356" lon="0.65805">
        <ele>148</ele>
        <time>2012-05-12T11:21:37Z</time>
      </trkpt>
      <trkpt lat="49.00376" lon="0.6587">
        <ele>149</ele>
        <time>2012-05-12T11:21:45Z</time>
      </trkpt>
      <trkpt lat="49.00371" lon="0.65937">
        <ele>152</ele>
        <time>2012-05-12T11:21:53Z</time>
      </trkpt>
      <trkpt lat="49.00356" lon="0.66004">
        <ele>156</ele>
        <time>2012-05-12T11:22:06Z</time>
      </trkpt>
      <trkpt lat="49.00351" lon="0.66088">
        <ele>159</ele>
        <time>2012-05-12T11:22:24Z</time>
      </trkpt>
      <trkpt lat="49.00369" lon="0.66161">
        <ele>159</ele>
        <time>2012-05-12T11:22:44Z</time>
      </trkpt>
      <trkpt lat="49.00394" lon="0.66225">
        <ele>162</ele>
        <time>2012-05-12T11:22:58Z</time>
      </trkpt>
      <trkpt lat="49.00413" lon="0.66292">
        <ele>165</ele>
        <time>2012-05-12T11:23:12Z</time>
      </trkpt>
      <trkpt lat="49.00426" lon="0.66369">
        <ele>166</ele>
        <time>2012-05-12T11:23:30Z</time>
      </trkpt>
      <trkpt lat="49.00444" lon="0.66468">
        <ele>169</ele>
        <time>2012-05-12T11:23:46Z</time>
      </trkpt>
      <trkpt lat="49.00459" lon="0.6658">
        <ele>169</ele>
        <time>2012-05-12T11:24:11Z</time>
      </trkpt>
      <trkpt lat="49.00449" lon="0.66697">
        <ele>169</ele>
        <time>2012-05-12T11:24:32Z</time>
      </trkpt>
      <trkpt lat="49.00463" lon="0.66773">
        <ele>169</ele>
        <time>2012-05-12T11:24:45Z</time>
      </trkpt>
      <trkpt lat="49.00491" lon="0.66837">
        <ele>170</ele>
        <time>2012-05-12T11:24:59Z</time>
      </trkpt>
      <trkpt lat="49.00522" lon="0.66892">
        <ele>169</ele>
        <time>2012-05-12T11:25:13Z</time>
      </trkpt>
      <trkpt lat="49.00553" lon="0.66947">
        <ele>169</ele>
        <time>2012-05-12T11:25:29Z</time>
      </trkpt>
      <trkpt lat="49.00564" lon="0.67022">
        <ele>168</ele>
        <time>2012-05-12T11:25:46Z</time>
      </trkpt>
      <trkpt lat="49.00576" lon="0.67107">
        <ele>166</ele>
        <time>2012-05-12T11:26:01Z</time>
      </trkpt>
      <trkpt lat="49.00605" lon="0.67169">
        <ele>163</ele>
        <time>2012-05-12T11:26:11Z</time>
      </trkpt>
      <trkpt lat="49.00634" lon="0.67228">
        <ele>162</ele>
        <time>2012-05-12T11:26:20Z</time>
      </trkpt>
      <trkpt lat="49.00661" lon="0.67284">
        <ele>163</ele>
        <time>2012-05-12T11:26:30Z</time>
      </trkpt>
      <trkpt lat="49.00618" lon="0.67285">
        <ele>163</ele>
        <time>2012-05-12T11:26:43Z</time>
      </trkpt>
      <trkpt lat="49.00572" lon="0.67309">
        <ele>165</ele>
        <time>2012-05-12T11:26:55Z</time>
      </trkpt>
      <trkpt lat="49.00527" lon="0.67334">
        <ele>167</ele>
        <time>2012-05-12T11:27:08Z</time>
      </trkpt>
      <trkpt lat="49.00545" lon="0.67393">
        <ele>166</ele>
        <time>2012-05-12T11:27:21Z</time>
      </trkpt>
      <trkpt lat="49.0058" lon="0.67444">
        <ele>165</ele>
        <time>2012-05-12T11:27:32Z</time>
      </trkpt>
      <trkpt lat="49.00619" lon="0.67491">
        <ele>164</ele>
        <time>2012-05-12T11:27:44Z</time>
      </trkpt>
      <trkpt lat="49.00652" lon="0.67544">
        <ele>164</ele>
        <time>2012-05-12T11:27:54Z</time>
      </trkpt>
      <trkpt lat="49.00681" lon="0.67605">
        <ele>164</ele>
        <time>2012-05-12T11:28:07Z</time>
      </trkpt>
      <trkpt lat="49.00715" lon="0.67654">
        <ele>164</ele>
        <time>2012-05-12T11:28:17Z</time>
      </trkpt>
      <trkpt lat="49.00751" lon="0.67696">
        <ele>163</ele>
        <time>2012-05-12T11:28:26Z</time>
      </trkpt>
      <trkpt lat="49.0078" lon="0.67753">
        <ele>164</ele>
        <time>2012-05-12T11:28:35Z</time>
      </trkpt>
      <trkpt lat="49.00816" lon="0.67795">
        <ele>163</ele>
        <time>2012-05-12T11:28:44Z</time>
      </trkpt>
      <trkpt lat="49.00863" lon="0.67814">
        <ele>163</ele>
        <time>2012-05-12T11:28:55Z</time>
      </trkpt>
      <trkpt lat="49.00893" lon="0.67855">
        <ele>163</ele>
        <time>2012-05-12T11:29:07Z</time>
      </trkpt>
      <trkpt lat="49.00899" lon="0.67923">
        <ele>163</ele>
        <time>2012-05-12T11:29:19Z</time>
      </trkpt>
      <trkpt lat="49.00924" lon="0.67989">
        <ele>163</ele>
        <time>2012-05-12T11:29:30Z</time>
      </trkpt>
      <trkpt lat="49.00922" lon="0.68039">
        <ele>163</ele>
        <time>2012-05-12T11:30:53Z</time>
      </trkpt>
      <trkpt lat="49.00881" lon="0.68067">
        <ele>163</ele>
        <time>2012-05-12T11:31:01Z</time>
      </trkpt>
      <trkpt lat="49.00846" lon="0.68115">
        <ele>164</ele>
        <time>2012-05-12T11:31:09Z</time>
      </trkpt>
      <trkpt lat="49.00812" lon="0.68162">
        <ele>164</ele>
        <time>2012-05-12T11:31:17Z</time>
      </trkpt>
      <trkpt lat="49.00768" lon="0.68191">
        <ele>163</ele>
        <time>2012-05-12T11:31:25Z</time>
      </trkpt>
      <trkpt lat="49.00754" lon="0.6825">
        <ele>163</ele>
        <time>2012-05-12T11:31:35Z</time>
      </trkpt>
      <trkpt lat="49.00774" lon="0.68315">
        <ele>162</ele>
        <time>2012-05-12T11:31:45Z</time>
      </trkpt>
      <trkpt lat="49.00779" lon="0.68387">
        <ele>159</ele>
        <time>2012-05-12T11:31:54Z</time>
      </trkpt>
      <trkpt lat="49.00787" lon="0.68456">
        <ele>159</ele>
        <time>2012-05-12T11:32:01Z</time>
      </trkpt>
      <trkpt lat="49.00771" lon="0.68503">
        <ele>161</ele>
        <time>2012-05-12T11:32:14Z</time>
      </trkpt>
      <trkpt lat="49.00739" lon="0.68563">
        <ele>162</ele>
        <time>2012-05-12T11:32:37Z</time>
      </trkpt>
      <trkpt lat="49.00695" lon="0.68555">
        <ele>163</ele>
        <time>2012-05-12T11:32:50Z</time>
      </trkpt>
      <trkpt lat="49.00653" lon="0.68529">
        <ele>164</ele>
        <time>2012-05-12T11:33:00Z</time>
      </trkpt>
      <trkpt lat="49.00607" lon="0.6854">
        <ele>165</ele>
        <time>2012-05-12T11:33:11Z</time>
      </trkpt>
      <trkpt lat="49.00613" lon="0.68598">
        <ele>167</ele>
        <time>2012-05-12T11:33:22Z</time>
      </trkpt>
      <trkpt lat="49.00644" lon="0.68655">
        <ele>168</ele>
        <time>2012-05-12T11:33:32Z</time>
      </trkpt>
      <trkpt lat="49.00667" lon="0.68714">
        <ele>166</ele>
        <time>2012-05-12T11:33:42Z</time>
      </trkpt>
      <trkpt lat="49.0065" lon="0.68781">
        <ele>164</ele>
        <time>2012-05-12T11:33:52Z</time>
      </trkpt>
      <trkpt lat="49.00661" lon="0.68855">
        <ele>164</ele>
        <time>2012-05-12T11:34:02Z</time>
      </trkpt>
      <trkpt lat="49.00684" lon="0.68919">
        <ele>164</ele>
        <time>2012-05-12T11:34:11Z</time>
      </trkpt>
      <trkpt lat="49.00712" lon="0.68977">
        <ele>164</ele>
        <time>2012-05-12T11:34:20Z</time>
      </trkpt>
      <trkpt lat="49.00745" lon="0.69036">
        <ele>162</ele>
        <time>2012-05-12T11:34:29Z</time>
      </trkpt>
      <trkpt lat="49.00776" lon="0.69097">
        <ele>159</ele>
        <time>2012-05-12T11:34:37Z</time>
      </trkpt>
      <trkpt lat="49.00804" lon="0.69162">
        <ele>157</ele>
        <time>2012-05-12T11:34:43Z</time>
      </trkpt>
      <trkpt lat="49.00829" lon="0.6923">
        <ele>155</ele>
        <time>2012-05-12T11:34:48Z</time>
      </trkpt>
      <trkpt lat="49.00833" lon="0.693">
        <ele>157</ele>
        <time>2012-05-12T11:34:53Z</time>
      </trkpt>
      <trkpt lat="49.00817" lon="0.69367">
        <ele>161</ele>
        <time>2012-05-12T11:35:03Z</time>
      </trkpt>
      <trkpt lat="49.00836" lon="0.6942">
        <ele>166</ele>
        <time>2012-05-12T11:35:18Z</time>
      </trkpt>
      <trkpt lat="49.00879" lon="0.694">
        <ele>166</ele>
        <time>2012-05-12T11:35:32Z</time>
      </trkpt>
      <trkpt lat="49.00904" lon="0.69459">
        <ele>168</ele>
        <time>2012-05-12T11:35:59Z</time>
      </trkpt>
      <trkpt lat="49.00921" lon="0.69523">
        <ele>167</ele>
        <time>2012-05-12T11:36:09Z</time>
      </trkpt>
      <trkpt lat="49.00941" lon="0.69588">
        <ele>167</ele>
        <time>2012-05-12T11:36:18Z</time>
      </trkpt>
      <trkpt lat="49.00961" lon="0.69651">
        <ele>167</ele>
        <time>2012-05-12T11:36:27Z</time>
      </trkpt>
      <trkpt lat="49.00984" lon="0.69719">
        <ele>166</ele>
        <time>2012-05-12T11:36:37Z</time>
      </trkpt>
      <trkpt lat="49.01006" lon="0.69785">
        <ele>165</ele>
        <time>2012-05-12T11:36:48Z</time>
      </trkpt>
      <trkpt lat="49.01024" lon="0.69848">
        <ele>164</ele>
        <time>2012-05-12T11:36:59Z</time>
      </trkpt>
      <trkpt lat="49.01044" lon="0.69909">
        <ele>164</ele>
        <time>2012-05-12T11:37:10Z</time>
      </trkpt>
      <trkpt lat="49.01064" lon="0.69974">
        <ele>165</ele>
        <time>2012-05-12T11:37:21Z</time>
      </trkpt>
      <trkpt lat="49.01083" lon="0.70034">
        <ele>165</ele>
        <time>2012-05-12T11:37:31Z</time>
      </trkpt>
      <trkpt lat="49.01103" lon="0.70098">
        <ele>165</ele>
        <time>2012-05-12T11:37:41Z</time>
      </trkpt>
      <trkpt lat="49.01131" lon="0.70161">
        <ele>165</ele>
        <time>2012-05-12T11:37:51Z</time>
      </trkpt>
      <trkpt lat="49.01175" lon="0.70187">
        <ele>165</ele>
        <time>2012-05-12T11:38:01Z</time>
      </trkpt>
      <trkpt lat="49.01206" lon="0.70236">
        <ele>165</ele>
        <time>2012-05-12T11:38:11Z</time>
      </trkpt>
      <trkpt lat="49.01223" lon="0.703">
        <ele>165</ele>
        <time>2012-05-12T11:38:25Z</time>
      </trkpt>
      <trkpt lat="49.01202" lon="0.70351">
        <ele>165</ele>
        <time>2012-05-12T11:38:40Z</time>
      </trkpt>
      <trkpt lat="49.01182" lon="0.70415">
        <ele>166</ele>
        <time>2012-05-12T11:38:53Z</time>
      </trkpt>
      <trkpt lat="49.0119" lon="0.70482">
        <ele>167</ele>
        <time>2012-05-12T11:39:08Z</time>
      </trkpt>
    </trkseg>
  </trk>
</gpx>